<?xml version="1.0" encoding="UTF-8" ?>
<gpx xmlns="http://www.topografix.com/GPX/1/1" version="1.1" creator="RouteGadget GPS Tracking" xmlns:xsi="http://www.w3.org/2001/XMLSchema-instance" xmlns:tp1="http://www.garmin.com/xmlschemas/TrackPointExtension/v1" xsi:schemaLocation="http://www.topografix.com/GPX/1/1 http://www.topografix.com/GPX/1/1/gpx.xsd http://www.garmin.com/xmlschemas/TrackPointExtension/v1 http://www.garmin.com/xmlschemas/TrackPointExtensionv1.xsd">
<trk>
<trkseg><trkpt lat="62.701968" lon="23.879585">
<time>2021-06-10T14:13:00Z</time>
</trkpt>
<trkpt lat="62.701968" lon="23.879585">
<time>2021-06-10T14:13:01Z</time>
</trkpt>
<trkpt lat="62.701953" lon="23.879584">
<time>2021-06-10T14:13:02Z</time>
</trkpt>
<trkpt lat="62.701931" lon="23.879586">
<time>2021-06-10T14:13:03Z</time>
</trkpt>
<trkpt lat="62.701898" lon="23.87958">
<time>2021-06-10T14:13:04Z</time>
</trkpt>
<trkpt lat="62.701856" lon="23.879549">
<time>2021-06-10T14:13:05Z</time>
</trkpt>
<trkpt lat="62.701811" lon="23.879488">
<time>2021-06-10T14:13:06Z</time>
</trkpt>
<trkpt lat="62.70177" lon="23.879404">
<time>2021-06-10T14:13:07Z</time>
</trkpt>
<trkpt lat="62.701733" lon="23.879298">
<time>2021-06-10T14:13:08Z</time>
</trkpt>
<trkpt lat="62.701702" lon="23.879173">
<time>2021-06-10T14:13:09Z</time>
</trkpt>
<trkpt lat="62.701673" lon="23.879029">
<time>2021-06-10T14:13:10Z</time>
</trkpt>
<trkpt lat="62.701649" lon="23.878877">
<time>2021-06-10T14:13:11Z</time>
</trkpt>
<trkpt lat="62.701632" lon="23.878721">
<time>2021-06-10T14:13:12Z</time>
</trkpt>
<trkpt lat="62.701619" lon="23.878564">
<time>2021-06-10T14:13:13Z</time>
</trkpt>
<trkpt lat="62.70161" lon="23.878405">
<time>2021-06-10T14:13:14Z</time>
</trkpt>
<trkpt lat="62.701602" lon="23.878241">
<time>2021-06-10T14:13:15Z</time>
</trkpt>
<trkpt lat="62.701592" lon="23.878071">
<time>2021-06-10T14:13:16Z</time>
</trkpt>
<trkpt lat="62.701578" lon="23.877895">
<time>2021-06-10T14:13:17Z</time>
</trkpt>
<trkpt lat="62.701562" lon="23.877713">
<time>2021-06-10T14:13:18Z</time>
</trkpt>
<trkpt lat="62.701548" lon="23.877526">
<time>2021-06-10T14:13:19Z</time>
</trkpt>
<trkpt lat="62.701532" lon="23.877338">
<time>2021-06-10T14:13:20Z</time>
</trkpt>
<trkpt lat="62.701517" lon="23.877153">
<time>2021-06-10T14:13:21Z</time>
</trkpt>
<trkpt lat="62.7015" lon="23.876979">
<time>2021-06-10T14:13:22Z</time>
</trkpt>
<trkpt lat="62.701486" lon="23.876818">
<time>2021-06-10T14:13:23Z</time>
</trkpt>
<trkpt lat="62.701474" lon="23.876669">
<time>2021-06-10T14:13:24Z</time>
</trkpt>
<trkpt lat="62.701465" lon="23.876526">
<time>2021-06-10T14:13:25Z</time>
</trkpt>
<trkpt lat="62.701456" lon="23.876386">
<time>2021-06-10T14:13:26Z</time>
</trkpt>
<trkpt lat="62.701447" lon="23.876248">
<time>2021-06-10T14:13:27Z</time>
</trkpt>
<trkpt lat="62.701427" lon="23.876115">
<time>2021-06-10T14:13:28Z</time>
</trkpt>
<trkpt lat="62.701399" lon="23.875989">
<time>2021-06-10T14:13:29Z</time>
</trkpt>
<trkpt lat="62.701353" lon="23.875879">
<time>2021-06-10T14:13:30Z</time>
</trkpt>
<trkpt lat="62.701297" lon="23.875789">
<time>2021-06-10T14:13:31Z</time>
</trkpt>
<trkpt lat="62.701228" lon="23.875722">
<time>2021-06-10T14:13:32Z</time>
</trkpt>
<trkpt lat="62.701159" lon="23.875671">
<time>2021-06-10T14:13:33Z</time>
</trkpt>
<trkpt lat="62.701092" lon="23.875627">
<time>2021-06-10T14:13:34Z</time>
</trkpt>
<trkpt lat="62.701027" lon="23.875589">
<time>2021-06-10T14:13:35Z</time>
</trkpt>
<trkpt lat="62.700972" lon="23.875557">
<time>2021-06-10T14:13:36Z</time>
</trkpt>
<trkpt lat="62.700937" lon="23.875545">
<time>2021-06-10T14:13:37Z</time>
</trkpt>
<trkpt lat="62.700919" lon="23.875547">
<time>2021-06-10T14:13:38Z</time>
</trkpt>
<trkpt lat="62.700913" lon="23.875576">
<time>2021-06-10T14:13:39Z</time>
</trkpt>
<trkpt lat="62.70091" lon="23.875608">
<time>2021-06-10T14:13:40Z</time>
</trkpt>
<trkpt lat="62.700922" lon="23.875643">
<time>2021-06-10T14:13:41Z</time>
</trkpt>
<trkpt lat="62.700942" lon="23.875663">
<time>2021-06-10T14:13:42Z</time>
</trkpt>
<trkpt lat="62.700979" lon="23.875679">
<time>2021-06-10T14:13:43Z</time>
</trkpt>
<trkpt lat="62.70102" lon="23.875699">
<time>2021-06-10T14:13:44Z</time>
</trkpt>
<trkpt lat="62.701073" lon="23.875719">
<time>2021-06-10T14:13:45Z</time>
</trkpt>
<trkpt lat="62.701127" lon="23.875743">
<time>2021-06-10T14:13:46Z</time>
</trkpt>
<trkpt lat="62.701177" lon="23.875777">
<time>2021-06-10T14:13:47Z</time>
</trkpt>
<trkpt lat="62.701221" lon="23.875823">
<time>2021-06-10T14:13:48Z</time>
</trkpt>
<trkpt lat="62.701261" lon="23.875873">
<time>2021-06-10T14:13:49Z</time>
</trkpt>
<trkpt lat="62.701297" lon="23.875919">
<time>2021-06-10T14:13:50Z</time>
</trkpt>
<trkpt lat="62.701331" lon="23.875952">
<time>2021-06-10T14:13:51Z</time>
</trkpt>
<trkpt lat="62.701358" lon="23.875965">
<time>2021-06-10T14:13:52Z</time>
</trkpt>
<trkpt lat="62.701385" lon="23.875959">
<time>2021-06-10T14:13:53Z</time>
</trkpt>
<trkpt lat="62.701411" lon="23.875947">
<time>2021-06-10T14:13:54Z</time>
</trkpt>
<trkpt lat="62.701442" lon="23.875935">
<time>2021-06-10T14:13:55Z</time>
</trkpt>
<trkpt lat="62.701484" lon="23.875921">
<time>2021-06-10T14:13:56Z</time>
</trkpt>
<trkpt lat="62.701531" lon="23.875895">
<time>2021-06-10T14:13:57Z</time>
</trkpt>
<trkpt lat="62.701582" lon="23.875856">
<time>2021-06-10T14:13:58Z</time>
</trkpt>
<trkpt lat="62.701622" lon="23.875806">
<time>2021-06-10T14:13:59Z</time>
</trkpt>
<trkpt lat="62.701658" lon="23.875756">
<time>2021-06-10T14:14:00Z</time>
</trkpt>
<trkpt lat="62.701696" lon="23.875716">
<time>2021-06-10T14:14:01Z</time>
</trkpt>
<trkpt lat="62.70174" lon="23.875696">
<time>2021-06-10T14:14:02Z</time>
</trkpt>
<trkpt lat="62.70179" lon="23.875693">
<time>2021-06-10T14:14:03Z</time>
</trkpt>
<trkpt lat="62.701842" lon="23.875705">
<time>2021-06-10T14:14:04Z</time>
</trkpt>
<trkpt lat="62.701896" lon="23.875721">
<time>2021-06-10T14:14:05Z</time>
</trkpt>
<trkpt lat="62.701949" lon="23.875739">
<time>2021-06-10T14:14:06Z</time>
</trkpt>
<trkpt lat="62.702003" lon="23.875751">
<time>2021-06-10T14:14:07Z</time>
</trkpt>
<trkpt lat="62.702054" lon="23.875757">
<time>2021-06-10T14:14:08Z</time>
</trkpt>
<trkpt lat="62.702103" lon="23.875753">
<time>2021-06-10T14:14:09Z</time>
</trkpt>
<trkpt lat="62.702149" lon="23.875743">
<time>2021-06-10T14:14:10Z</time>
</trkpt>
<trkpt lat="62.702194" lon="23.875723">
<time>2021-06-10T14:14:11Z</time>
</trkpt>
<trkpt lat="62.702236" lon="23.875698">
<time>2021-06-10T14:14:12Z</time>
</trkpt>
<trkpt lat="62.702275" lon="23.875668">
<time>2021-06-10T14:14:13Z</time>
</trkpt>
<trkpt lat="62.702311" lon="23.875636">
<time>2021-06-10T14:14:14Z</time>
</trkpt>
<trkpt lat="62.702347" lon="23.875589">
<time>2021-06-10T14:14:15Z</time>
</trkpt>
<trkpt lat="62.70238" lon="23.875524">
<time>2021-06-10T14:14:16Z</time>
</trkpt>
<trkpt lat="62.702411" lon="23.875445">
<time>2021-06-10T14:14:17Z</time>
</trkpt>
<trkpt lat="62.702439" lon="23.875354">
<time>2021-06-10T14:14:18Z</time>
</trkpt>
<trkpt lat="62.702463" lon="23.87526">
<time>2021-06-10T14:14:19Z</time>
</trkpt>
<trkpt lat="62.702485" lon="23.875165">
<time>2021-06-10T14:14:20Z</time>
</trkpt>
<trkpt lat="62.702505" lon="23.875079">
<time>2021-06-10T14:14:21Z</time>
</trkpt>
<trkpt lat="62.702529" lon="23.875">
<time>2021-06-10T14:14:22Z</time>
</trkpt>
<trkpt lat="62.702555" lon="23.874927">
<time>2021-06-10T14:14:23Z</time>
</trkpt>
<trkpt lat="62.702585" lon="23.874862">
<time>2021-06-10T14:14:24Z</time>
</trkpt>
<trkpt lat="62.702615" lon="23.874801">
<time>2021-06-10T14:14:25Z</time>
</trkpt>
<trkpt lat="62.702646" lon="23.874754">
<time>2021-06-10T14:14:26Z</time>
</trkpt>
<trkpt lat="62.702678" lon="23.874727">
<time>2021-06-10T14:14:27Z</time>
</trkpt>
<trkpt lat="62.702715" lon="23.874739">
<time>2021-06-10T14:14:28Z</time>
</trkpt>
<trkpt lat="62.702751" lon="23.874765">
<time>2021-06-10T14:14:29Z</time>
</trkpt>
<trkpt lat="62.702786" lon="23.874799">
<time>2021-06-10T14:14:30Z</time>
</trkpt>
<trkpt lat="62.702808" lon="23.874819">
<time>2021-06-10T14:14:31Z</time>
</trkpt>
<trkpt lat="62.702823" lon="23.874831">
<time>2021-06-10T14:14:32Z</time>
</trkpt>
<trkpt lat="62.702832" lon="23.87483">
<time>2021-06-10T14:14:33Z</time>
</trkpt>
<trkpt lat="62.702844" lon="23.87482">
<time>2021-06-10T14:14:34Z</time>
</trkpt>
<trkpt lat="62.702856" lon="23.874801">
<time>2021-06-10T14:14:35Z</time>
</trkpt>
<trkpt lat="62.702863" lon="23.874778">
<time>2021-06-10T14:14:36Z</time>
</trkpt>
<trkpt lat="62.70287" lon="23.874735">
<time>2021-06-10T14:14:37Z</time>
</trkpt>
<trkpt lat="62.702876" lon="23.874673">
<time>2021-06-10T14:14:38Z</time>
</trkpt>
<trkpt lat="62.702888" lon="23.874583">
<time>2021-06-10T14:14:39Z</time>
</trkpt>
<trkpt lat="62.702902" lon="23.874481">
<time>2021-06-10T14:14:40Z</time>
</trkpt>
<trkpt lat="62.702918" lon="23.874365">
<time>2021-06-10T14:14:41Z</time>
</trkpt>
<trkpt lat="62.702935" lon="23.874244">
<time>2021-06-10T14:14:42Z</time>
</trkpt>
<trkpt lat="62.702957" lon="23.874116">
<time>2021-06-10T14:14:43Z</time>
</trkpt>
<trkpt lat="62.702983" lon="23.873982">
<time>2021-06-10T14:14:44Z</time>
</trkpt>
<trkpt lat="62.703009" lon="23.873837">
<time>2021-06-10T14:14:45Z</time>
</trkpt>
<trkpt lat="62.703042" lon="23.873687">
<time>2021-06-10T14:14:46Z</time>
</trkpt>
<trkpt lat="62.70308" lon="23.873538">
<time>2021-06-10T14:14:47Z</time>
</trkpt>
<trkpt lat="62.703127" lon="23.873396">
<time>2021-06-10T14:14:48Z</time>
</trkpt>
<trkpt lat="62.703175" lon="23.873265">
<time>2021-06-10T14:14:49Z</time>
</trkpt>
<trkpt lat="62.703226" lon="23.873146">
<time>2021-06-10T14:14:50Z</time>
</trkpt>
<trkpt lat="62.703279" lon="23.873045">
<time>2021-06-10T14:14:51Z</time>
</trkpt>
<trkpt lat="62.703337" lon="23.872958">
<time>2021-06-10T14:14:52Z</time>
</trkpt>
<trkpt lat="62.703398" lon="23.872884">
<time>2021-06-10T14:14:53Z</time>
</trkpt>
<trkpt lat="62.70346" lon="23.872817">
<time>2021-06-10T14:14:54Z</time>
</trkpt>
<trkpt lat="62.703522" lon="23.872756">
<time>2021-06-10T14:14:55Z</time>
</trkpt>
<trkpt lat="62.703585" lon="23.872701">
<time>2021-06-10T14:14:56Z</time>
</trkpt>
<trkpt lat="62.703649" lon="23.872651">
<time>2021-06-10T14:14:57Z</time>
</trkpt>
<trkpt lat="62.703716" lon="23.872605">
<time>2021-06-10T14:14:58Z</time>
</trkpt>
<trkpt lat="62.703784" lon="23.872563">
<time>2021-06-10T14:14:59Z</time>
</trkpt>
<trkpt lat="62.703852" lon="23.872526">
<time>2021-06-10T14:15:00Z</time>
</trkpt>
<trkpt lat="62.703921" lon="23.872487">
<time>2021-06-10T14:15:01Z</time>
</trkpt>
<trkpt lat="62.703989" lon="23.872448">
<time>2021-06-10T14:15:02Z</time>
</trkpt>
<trkpt lat="62.704059" lon="23.872408">
<time>2021-06-10T14:15:03Z</time>
</trkpt>
<trkpt lat="62.70413" lon="23.872366">
<time>2021-06-10T14:15:04Z</time>
</trkpt>
<trkpt lat="62.7042" lon="23.872323">
<time>2021-06-10T14:15:05Z</time>
</trkpt>
<trkpt lat="62.704267" lon="23.872277">
<time>2021-06-10T14:15:06Z</time>
</trkpt>
<trkpt lat="62.704331" lon="23.87223">
<time>2021-06-10T14:15:07Z</time>
</trkpt>
<trkpt lat="62.704388" lon="23.872176">
<time>2021-06-10T14:15:08Z</time>
</trkpt>
<trkpt lat="62.704443" lon="23.872109">
<time>2021-06-10T14:15:09Z</time>
</trkpt>
<trkpt lat="62.704493" lon="23.872034">
<time>2021-06-10T14:15:10Z</time>
</trkpt>
<trkpt lat="62.704542" lon="23.871959">
<time>2021-06-10T14:15:11Z</time>
</trkpt>
<trkpt lat="62.70459" lon="23.871896">
<time>2021-06-10T14:15:12Z</time>
</trkpt>
<trkpt lat="62.70464" lon="23.87185">
<time>2021-06-10T14:15:13Z</time>
</trkpt>
<trkpt lat="62.704694" lon="23.871813">
<time>2021-06-10T14:15:14Z</time>
</trkpt>
<trkpt lat="62.70475" lon="23.871784">
<time>2021-06-10T14:15:15Z</time>
</trkpt>
<trkpt lat="62.704806" lon="23.871758">
<time>2021-06-10T14:15:16Z</time>
</trkpt>
<trkpt lat="62.704853" lon="23.871732">
<time>2021-06-10T14:15:17Z</time>
</trkpt>
<trkpt lat="62.704884" lon="23.871703">
<time>2021-06-10T14:15:18Z</time>
</trkpt>
<trkpt lat="62.704897" lon="23.871652">
<time>2021-06-10T14:15:19Z</time>
</trkpt>
<trkpt lat="62.704904" lon="23.871582">
<time>2021-06-10T14:15:20Z</time>
</trkpt>
<trkpt lat="62.704912" lon="23.871498">
<time>2021-06-10T14:15:21Z</time>
</trkpt>
<trkpt lat="62.704927" lon="23.871415">
<time>2021-06-10T14:15:22Z</time>
</trkpt>
<trkpt lat="62.704949" lon="23.871337">
<time>2021-06-10T14:15:23Z</time>
</trkpt>
<trkpt lat="62.704976" lon="23.871256">
<time>2021-06-10T14:15:24Z</time>
</trkpt>
<trkpt lat="62.705008" lon="23.871176">
<time>2021-06-10T14:15:25Z</time>
</trkpt>
<trkpt lat="62.705039" lon="23.871096">
<time>2021-06-10T14:15:26Z</time>
</trkpt>
<trkpt lat="62.705063" lon="23.87102">
<time>2021-06-10T14:15:27Z</time>
</trkpt>
<trkpt lat="62.705081" lon="23.87096">
<time>2021-06-10T14:15:28Z</time>
</trkpt>
<trkpt lat="62.705096" lon="23.87092">
<time>2021-06-10T14:15:29Z</time>
</trkpt>
<trkpt lat="62.705104" lon="23.870905">
<time>2021-06-10T14:15:30Z</time>
</trkpt>
<trkpt lat="62.705099" lon="23.870915">
<time>2021-06-10T14:15:31Z</time>
</trkpt>
<trkpt lat="62.705082" lon="23.870948">
<time>2021-06-10T14:15:32Z</time>
</trkpt>
<trkpt lat="62.705057" lon="23.871003">
<time>2021-06-10T14:15:33Z</time>
</trkpt>
<trkpt lat="62.705029" lon="23.871071">
<time>2021-06-10T14:15:34Z</time>
</trkpt>
<trkpt lat="62.705002" lon="23.87115">
<time>2021-06-10T14:15:35Z</time>
</trkpt>
<trkpt lat="62.704976" lon="23.871241">
<time>2021-06-10T14:15:36Z</time>
</trkpt>
<trkpt lat="62.704959" lon="23.871335">
<time>2021-06-10T14:15:37Z</time>
</trkpt>
<trkpt lat="62.704951" lon="23.871435">
<time>2021-06-10T14:15:38Z</time>
</trkpt>
<trkpt lat="62.704954" lon="23.871521">
<time>2021-06-10T14:15:39Z</time>
</trkpt>
<trkpt lat="62.704965" lon="23.871587">
<time>2021-06-10T14:15:40Z</time>
</trkpt>
<trkpt lat="62.704983" lon="23.871633">
<time>2021-06-10T14:15:41Z</time>
</trkpt>
<trkpt lat="62.705008" lon="23.871672">
<time>2021-06-10T14:15:42Z</time>
</trkpt>
<trkpt lat="62.705037" lon="23.871712">
<time>2021-06-10T14:15:43Z</time>
</trkpt>
<trkpt lat="62.705067" lon="23.871747">
<time>2021-06-10T14:15:44Z</time>
</trkpt>
<trkpt lat="62.705093" lon="23.871775">
<time>2021-06-10T14:15:45Z</time>
</trkpt>
<trkpt lat="62.705117" lon="23.871794">
<time>2021-06-10T14:15:46Z</time>
</trkpt>
<trkpt lat="62.705142" lon="23.871815">
<time>2021-06-10T14:15:47Z</time>
</trkpt>
<trkpt lat="62.705164" lon="23.871831">
<time>2021-06-10T14:15:48Z</time>
</trkpt>
<trkpt lat="62.705192" lon="23.871827">
<time>2021-06-10T14:15:49Z</time>
</trkpt>
<trkpt lat="62.705218" lon="23.871794">
<time>2021-06-10T14:15:50Z</time>
</trkpt>
<trkpt lat="62.705246" lon="23.871735">
<time>2021-06-10T14:15:51Z</time>
</trkpt>
<trkpt lat="62.705264" lon="23.871671">
<time>2021-06-10T14:15:52Z</time>
</trkpt>
<trkpt lat="62.705285" lon="23.871622">
<time>2021-06-10T14:15:53Z</time>
</trkpt>
<trkpt lat="62.705305" lon="23.871602">
<time>2021-06-10T14:15:54Z</time>
</trkpt>
<trkpt lat="62.705317" lon="23.871619">
<time>2021-06-10T14:15:55Z</time>
</trkpt>
<trkpt lat="62.705319" lon="23.871657">
<time>2021-06-10T14:15:56Z</time>
</trkpt>
<trkpt lat="62.705311" lon="23.871704">
<time>2021-06-10T14:15:57Z</time>
</trkpt>
<trkpt lat="62.705301" lon="23.871754">
<time>2021-06-10T14:15:58Z</time>
</trkpt>
<trkpt lat="62.705288" lon="23.871814">
<time>2021-06-10T14:15:59Z</time>
</trkpt>
<trkpt lat="62.705271" lon="23.871896">
<time>2021-06-10T14:16:00Z</time>
</trkpt>
<trkpt lat="62.70525" lon="23.871992">
<time>2021-06-10T14:16:01Z</time>
</trkpt>
<trkpt lat="62.705224" lon="23.872093">
<time>2021-06-10T14:16:02Z</time>
</trkpt>
<trkpt lat="62.705196" lon="23.87219">
<time>2021-06-10T14:16:03Z</time>
</trkpt>
<trkpt lat="62.705166" lon="23.872285">
<time>2021-06-10T14:16:04Z</time>
</trkpt>
<trkpt lat="62.705141" lon="23.872385">
<time>2021-06-10T14:16:05Z</time>
</trkpt>
<trkpt lat="62.705127" lon="23.872488">
<time>2021-06-10T14:16:06Z</time>
</trkpt>
<trkpt lat="62.705129" lon="23.872589">
<time>2021-06-10T14:16:07Z</time>
</trkpt>
<trkpt lat="62.705153" lon="23.872677">
<time>2021-06-10T14:16:08Z</time>
</trkpt>
<trkpt lat="62.705196" lon="23.872742">
<time>2021-06-10T14:16:09Z</time>
</trkpt>
<trkpt lat="62.705255" lon="23.872771">
<time>2021-06-10T14:16:10Z</time>
</trkpt>
<trkpt lat="62.705316" lon="23.872774">
<time>2021-06-10T14:16:11Z</time>
</trkpt>
<trkpt lat="62.705377" lon="23.872766">
<time>2021-06-10T14:16:12Z</time>
</trkpt>
<trkpt lat="62.705438" lon="23.872759">
<time>2021-06-10T14:16:13Z</time>
</trkpt>
<trkpt lat="62.705505" lon="23.872742">
<time>2021-06-10T14:16:14Z</time>
</trkpt>
<trkpt lat="62.705577" lon="23.872714">
<time>2021-06-10T14:16:15Z</time>
</trkpt>
<trkpt lat="62.705651" lon="23.872677">
<time>2021-06-10T14:16:16Z</time>
</trkpt>
<trkpt lat="62.705727" lon="23.872631">
<time>2021-06-10T14:16:17Z</time>
</trkpt>
<trkpt lat="62.705801" lon="23.872578">
<time>2021-06-10T14:16:18Z</time>
</trkpt>
<trkpt lat="62.705872" lon="23.872519">
<time>2021-06-10T14:16:19Z</time>
</trkpt>
<trkpt lat="62.705939" lon="23.872461">
<time>2021-06-10T14:16:20Z</time>
</trkpt>
<trkpt lat="62.706006" lon="23.8724">
<time>2021-06-10T14:16:21Z</time>
</trkpt>
<trkpt lat="62.706075" lon="23.872333">
<time>2021-06-10T14:16:22Z</time>
</trkpt>
<trkpt lat="62.706146" lon="23.872258">
<time>2021-06-10T14:16:23Z</time>
</trkpt>
<trkpt lat="62.706218" lon="23.872174">
<time>2021-06-10T14:16:24Z</time>
</trkpt>
<trkpt lat="62.706292" lon="23.872089">
<time>2021-06-10T14:16:25Z</time>
</trkpt>
<trkpt lat="62.70637" lon="23.872005">
<time>2021-06-10T14:16:26Z</time>
</trkpt>
<trkpt lat="62.706448" lon="23.871928">
<time>2021-06-10T14:16:27Z</time>
</trkpt>
<trkpt lat="62.706529" lon="23.871859">
<time>2021-06-10T14:16:28Z</time>
</trkpt>
<trkpt lat="62.70661" lon="23.871805">
<time>2021-06-10T14:16:29Z</time>
</trkpt>
<trkpt lat="62.706696" lon="23.871771">
<time>2021-06-10T14:16:30Z</time>
</trkpt>
<trkpt lat="62.706784" lon="23.871753">
<time>2021-06-10T14:16:31Z</time>
</trkpt>
<trkpt lat="62.706871" lon="23.871747">
<time>2021-06-10T14:16:32Z</time>
</trkpt>
<trkpt lat="62.706956" lon="23.871741">
<time>2021-06-10T14:16:33Z</time>
</trkpt>
<trkpt lat="62.707038" lon="23.871731">
<time>2021-06-10T14:16:34Z</time>
</trkpt>
<trkpt lat="62.70712" lon="23.871712">
<time>2021-06-10T14:16:35Z</time>
</trkpt>
<trkpt lat="62.7072" lon="23.87168">
<time>2021-06-10T14:16:36Z</time>
</trkpt>
<trkpt lat="62.707279" lon="23.871635">
<time>2021-06-10T14:16:37Z</time>
</trkpt>
<trkpt lat="62.707355" lon="23.871579">
<time>2021-06-10T14:16:38Z</time>
</trkpt>
<trkpt lat="62.707433" lon="23.871516">
<time>2021-06-10T14:16:39Z</time>
</trkpt>
<trkpt lat="62.707513" lon="23.871451">
<time>2021-06-10T14:16:40Z</time>
</trkpt>
<trkpt lat="62.707596" lon="23.87139">
<time>2021-06-10T14:16:41Z</time>
</trkpt>
<trkpt lat="62.707681" lon="23.871347">
<time>2021-06-10T14:16:42Z</time>
</trkpt>
<trkpt lat="62.707768" lon="23.871327">
<time>2021-06-10T14:16:43Z</time>
</trkpt>
<trkpt lat="62.707855" lon="23.871337">
<time>2021-06-10T14:16:44Z</time>
</trkpt>
<trkpt lat="62.707943" lon="23.871371">
<time>2021-06-10T14:16:45Z</time>
</trkpt>
<trkpt lat="62.708028" lon="23.871412">
<time>2021-06-10T14:16:46Z</time>
</trkpt>
<trkpt lat="62.708114" lon="23.871452">
<time>2021-06-10T14:16:47Z</time>
</trkpt>
<trkpt lat="62.708199" lon="23.871486">
<time>2021-06-10T14:16:48Z</time>
</trkpt>
<trkpt lat="62.708285" lon="23.87152">
<time>2021-06-10T14:16:49Z</time>
</trkpt>
<trkpt lat="62.708371" lon="23.871551">
<time>2021-06-10T14:16:50Z</time>
</trkpt>
<trkpt lat="62.708458" lon="23.871584">
<time>2021-06-10T14:16:51Z</time>
</trkpt>
<trkpt lat="62.708544" lon="23.871622">
<time>2021-06-10T14:16:52Z</time>
</trkpt>
<trkpt lat="62.70863" lon="23.871664">
<time>2021-06-10T14:16:53Z</time>
</trkpt>
<trkpt lat="62.708715" lon="23.871706">
<time>2021-06-10T14:16:54Z</time>
</trkpt>
<trkpt lat="62.708799" lon="23.871745">
<time>2021-06-10T14:16:55Z</time>
</trkpt>
<trkpt lat="62.708884" lon="23.871781">
<time>2021-06-10T14:16:56Z</time>
</trkpt>
<trkpt lat="62.708967" lon="23.871817">
<time>2021-06-10T14:16:57Z</time>
</trkpt>
<trkpt lat="62.709052" lon="23.871848">
<time>2021-06-10T14:16:58Z</time>
</trkpt>
<trkpt lat="62.709136" lon="23.871882">
<time>2021-06-10T14:16:59Z</time>
</trkpt>
<trkpt lat="62.709222" lon="23.871916">
<time>2021-06-10T14:17:00Z</time>
</trkpt>
<trkpt lat="62.709306" lon="23.871953">
<time>2021-06-10T14:17:01Z</time>
</trkpt>
<trkpt lat="62.70939" lon="23.871989">
<time>2021-06-10T14:17:02Z</time>
</trkpt>
<trkpt lat="62.709471" lon="23.872024">
<time>2021-06-10T14:17:03Z</time>
</trkpt>
<trkpt lat="62.70955" lon="23.872057">
<time>2021-06-10T14:17:04Z</time>
</trkpt>
<trkpt lat="62.709627" lon="23.872088">
<time>2021-06-10T14:17:05Z</time>
</trkpt>
<trkpt lat="62.709704" lon="23.872118">
<time>2021-06-10T14:17:06Z</time>
</trkpt>
<trkpt lat="62.70978" lon="23.872148">
<time>2021-06-10T14:17:07Z</time>
</trkpt>
<trkpt lat="62.709857" lon="23.872176">
<time>2021-06-10T14:17:08Z</time>
</trkpt>
<trkpt lat="62.709934" lon="23.872203">
<time>2021-06-10T14:17:09Z</time>
</trkpt>
<trkpt lat="62.71001" lon="23.872231">
<time>2021-06-10T14:17:10Z</time>
</trkpt>
<trkpt lat="62.710085" lon="23.87226">
<time>2021-06-10T14:17:11Z</time>
</trkpt>
<trkpt lat="62.710159" lon="23.872288">
<time>2021-06-10T14:17:12Z</time>
</trkpt>
<trkpt lat="62.710233" lon="23.872316">
<time>2021-06-10T14:17:13Z</time>
</trkpt>
<trkpt lat="62.710308" lon="23.872343">
<time>2021-06-10T14:17:14Z</time>
</trkpt>
<trkpt lat="62.710382" lon="23.872364">
<time>2021-06-10T14:17:15Z</time>
</trkpt>
<trkpt lat="62.710455" lon="23.872374">
<time>2021-06-10T14:17:16Z</time>
</trkpt>
<trkpt lat="62.710527" lon="23.872371">
<time>2021-06-10T14:17:17Z</time>
</trkpt>
<trkpt lat="62.710594" lon="23.872345">
<time>2021-06-10T14:17:18Z</time>
</trkpt>
<trkpt lat="62.710654" lon="23.872302">
<time>2021-06-10T14:17:19Z</time>
</trkpt>
<trkpt lat="62.710705" lon="23.872241">
<time>2021-06-10T14:17:20Z</time>
</trkpt>
<trkpt lat="62.710751" lon="23.87216">
<time>2021-06-10T14:17:21Z</time>
</trkpt>
<trkpt lat="62.710794" lon="23.872069">
<time>2021-06-10T14:17:22Z</time>
</trkpt>
<trkpt lat="62.710829" lon="23.871958">
<time>2021-06-10T14:17:23Z</time>
</trkpt>
<trkpt lat="62.710861" lon="23.871838">
<time>2021-06-10T14:17:24Z</time>
</trkpt>
<trkpt lat="62.710887" lon="23.871696">
<time>2021-06-10T14:17:25Z</time>
</trkpt>
<trkpt lat="62.710903" lon="23.871549">
<time>2021-06-10T14:17:26Z</time>
</trkpt>
<trkpt lat="62.710907" lon="23.871394">
<time>2021-06-10T14:17:27Z</time>
</trkpt>
<trkpt lat="62.710906" lon="23.871243">
<time>2021-06-10T14:17:28Z</time>
</trkpt>
<trkpt lat="62.7109" lon="23.871083">
<time>2021-06-10T14:17:29Z</time>
</trkpt>
<trkpt lat="62.710889" lon="23.870926">
<time>2021-06-10T14:17:30Z</time>
</trkpt>
<trkpt lat="62.710872" lon="23.870759">
<time>2021-06-10T14:17:31Z</time>
</trkpt>
<trkpt lat="62.710854" lon="23.870594">
<time>2021-06-10T14:17:32Z</time>
</trkpt>
<trkpt lat="62.710831" lon="23.87043">
<time>2021-06-10T14:17:33Z</time>
</trkpt>
<trkpt lat="62.710806" lon="23.870286">
<time>2021-06-10T14:17:34Z</time>
</trkpt>
<trkpt lat="62.710776" lon="23.870172">
<time>2021-06-10T14:17:35Z</time>
</trkpt>
<trkpt lat="62.710748" lon="23.870075">
<time>2021-06-10T14:17:36Z</time>
</trkpt>
<trkpt lat="62.710723" lon="23.869984">
<time>2021-06-10T14:17:37Z</time>
</trkpt>
<trkpt lat="62.710704" lon="23.869886">
<time>2021-06-10T14:17:38Z</time>
</trkpt>
<trkpt lat="62.710694" lon="23.869789">
<time>2021-06-10T14:17:39Z</time>
</trkpt>
<trkpt lat="62.710689" lon="23.869691">
<time>2021-06-10T14:17:40Z</time>
</trkpt>
<trkpt lat="62.71069" lon="23.869588">
<time>2021-06-10T14:17:41Z</time>
</trkpt>
<trkpt lat="62.710687" lon="23.869483">
<time>2021-06-10T14:17:42Z</time>
</trkpt>
<trkpt lat="62.710677" lon="23.869373">
<time>2021-06-10T14:17:43Z</time>
</trkpt>
<trkpt lat="62.710658" lon="23.869267">
<time>2021-06-10T14:17:44Z</time>
</trkpt>
<trkpt lat="62.710637" lon="23.869155">
<time>2021-06-10T14:17:45Z</time>
</trkpt>
<trkpt lat="62.710617" lon="23.869046">
<time>2021-06-10T14:17:46Z</time>
</trkpt>
<trkpt lat="62.710596" lon="23.868931">
<time>2021-06-10T14:17:47Z</time>
</trkpt>
<trkpt lat="62.710569" lon="23.868818">
<time>2021-06-10T14:17:48Z</time>
</trkpt>
<trkpt lat="62.710541" lon="23.868702">
<time>2021-06-10T14:17:49Z</time>
</trkpt>
<trkpt lat="62.710515" lon="23.868588">
<time>2021-06-10T14:17:50Z</time>
</trkpt>
<trkpt lat="62.710485" lon="23.868474">
<time>2021-06-10T14:17:51Z</time>
</trkpt>
<trkpt lat="62.710444" lon="23.86837">
<time>2021-06-10T14:17:52Z</time>
</trkpt>
<trkpt lat="62.710398" lon="23.868276">
<time>2021-06-10T14:17:53Z</time>
</trkpt>
<trkpt lat="62.710352" lon="23.868184">
<time>2021-06-10T14:17:54Z</time>
</trkpt>
<trkpt lat="62.710313" lon="23.868089">
<time>2021-06-10T14:17:55Z</time>
</trkpt>
<trkpt lat="62.710277" lon="23.867993">
<time>2021-06-10T14:17:56Z</time>
</trkpt>
<trkpt lat="62.710242" lon="23.867908">
<time>2021-06-10T14:17:57Z</time>
</trkpt>
<trkpt lat="62.710197" lon="23.867843">
<time>2021-06-10T14:17:58Z</time>
</trkpt>
<trkpt lat="62.710145" lon="23.867792">
<time>2021-06-10T14:17:59Z</time>
</trkpt>
<trkpt lat="62.710089" lon="23.867751">
<time>2021-06-10T14:18:00Z</time>
</trkpt>
<trkpt lat="62.710034" lon="23.867708">
<time>2021-06-10T14:18:01Z</time>
</trkpt>
<trkpt lat="62.70998" lon="23.867664">
<time>2021-06-10T14:18:02Z</time>
</trkpt>
<trkpt lat="62.709932" lon="23.867594">
<time>2021-06-10T14:18:03Z</time>
</trkpt>
<trkpt lat="62.709896" lon="23.867495">
<time>2021-06-10T14:18:04Z</time>
</trkpt>
<trkpt lat="62.709865" lon="23.867366">
<time>2021-06-10T14:18:05Z</time>
</trkpt>
<trkpt lat="62.709838" lon="23.867235">
<time>2021-06-10T14:18:06Z</time>
</trkpt>
<trkpt lat="62.709811" lon="23.867108">
<time>2021-06-10T14:18:07Z</time>
</trkpt>
<trkpt lat="62.709787" lon="23.866999">
<time>2021-06-10T14:18:08Z</time>
</trkpt>
<trkpt lat="62.709776" lon="23.866913">
<time>2021-06-10T14:18:09Z</time>
</trkpt>
<trkpt lat="62.70978" lon="23.866851">
<time>2021-06-10T14:18:10Z</time>
</trkpt>
<trkpt lat="62.709797" lon="23.866805">
<time>2021-06-10T14:18:11Z</time>
</trkpt>
<trkpt lat="62.709807" lon="23.866761">
<time>2021-06-10T14:18:12Z</time>
</trkpt>
<trkpt lat="62.70981" lon="23.866716">
<time>2021-06-10T14:18:13Z</time>
</trkpt>
<trkpt lat="62.709805" lon="23.866665">
<time>2021-06-10T14:18:14Z</time>
</trkpt>
<trkpt lat="62.709804" lon="23.866603">
<time>2021-06-10T14:18:15Z</time>
</trkpt>
<trkpt lat="62.709805" lon="23.866532">
<time>2021-06-10T14:18:16Z</time>
</trkpt>
<trkpt lat="62.709811" lon="23.866452">
<time>2021-06-10T14:18:17Z</time>
</trkpt>
<trkpt lat="62.709817" lon="23.866368">
<time>2021-06-10T14:18:18Z</time>
</trkpt>
<trkpt lat="62.709827" lon="23.866282">
<time>2021-06-10T14:18:19Z</time>
</trkpt>
<trkpt lat="62.709836" lon="23.866192">
<time>2021-06-10T14:18:20Z</time>
</trkpt>
<trkpt lat="62.709849" lon="23.866093">
<time>2021-06-10T14:18:21Z</time>
</trkpt>
<trkpt lat="62.709858" lon="23.865989">
<time>2021-06-10T14:18:22Z</time>
</trkpt>
<trkpt lat="62.709856" lon="23.865874">
<time>2021-06-10T14:18:23Z</time>
</trkpt>
<trkpt lat="62.709845" lon="23.86576">
<time>2021-06-10T14:18:24Z</time>
</trkpt>
<trkpt lat="62.709827" lon="23.865653">
<time>2021-06-10T14:18:25Z</time>
</trkpt>
<trkpt lat="62.709804" lon="23.865566">
<time>2021-06-10T14:18:26Z</time>
</trkpt>
<trkpt lat="62.709776" lon="23.865496">
<time>2021-06-10T14:18:27Z</time>
</trkpt>
<trkpt lat="62.709738" lon="23.865443">
<time>2021-06-10T14:18:28Z</time>
</trkpt>
<trkpt lat="62.709696" lon="23.865402">
<time>2021-06-10T14:18:29Z</time>
</trkpt>
<trkpt lat="62.709646" lon="23.865379">
<time>2021-06-10T14:18:30Z</time>
</trkpt>
<trkpt lat="62.709592" lon="23.865364">
<time>2021-06-10T14:18:31Z</time>
</trkpt>
<trkpt lat="62.709532" lon="23.865347">
<time>2021-06-10T14:18:32Z</time>
</trkpt>
<trkpt lat="62.709472" lon="23.865323">
<time>2021-06-10T14:18:33Z</time>
</trkpt>
<trkpt lat="62.70941" lon="23.865298">
<time>2021-06-10T14:18:34Z</time>
</trkpt>
<trkpt lat="62.709346" lon="23.865282">
<time>2021-06-10T14:18:35Z</time>
</trkpt>
<trkpt lat="62.709275" lon="23.865273">
<time>2021-06-10T14:18:36Z</time>
</trkpt>
<trkpt lat="62.709201" lon="23.865264">
<time>2021-06-10T14:18:37Z</time>
</trkpt>
<trkpt lat="62.709127" lon="23.86526">
<time>2021-06-10T14:18:38Z</time>
</trkpt>
<trkpt lat="62.709053" lon="23.865254">
<time>2021-06-10T14:18:39Z</time>
</trkpt>
<trkpt lat="62.708977" lon="23.865247">
<time>2021-06-10T14:18:40Z</time>
</trkpt>
<trkpt lat="62.7089" lon="23.865237">
<time>2021-06-10T14:18:41Z</time>
</trkpt>
<trkpt lat="62.708822" lon="23.865226">
<time>2021-06-10T14:18:42Z</time>
</trkpt>
<trkpt lat="62.708742" lon="23.865219">
<time>2021-06-10T14:18:43Z</time>
</trkpt>
<trkpt lat="62.70866" lon="23.865217">
<time>2021-06-10T14:18:44Z</time>
</trkpt>
<trkpt lat="62.708578" lon="23.865225">
<time>2021-06-10T14:18:45Z</time>
</trkpt>
<trkpt lat="62.708495" lon="23.865242">
<time>2021-06-10T14:18:46Z</time>
</trkpt>
<trkpt lat="62.708411" lon="23.865267">
<time>2021-06-10T14:18:47Z</time>
</trkpt>
<trkpt lat="62.708326" lon="23.865295">
<time>2021-06-10T14:18:48Z</time>
</trkpt>
<trkpt lat="62.708241" lon="23.86533">
<time>2021-06-10T14:18:49Z</time>
</trkpt>
<trkpt lat="62.708157" lon="23.865366">
<time>2021-06-10T14:18:50Z</time>
</trkpt>
<trkpt lat="62.708076" lon="23.865406">
<time>2021-06-10T14:18:51Z</time>
</trkpt>
<trkpt lat="62.707997" lon="23.865445">
<time>2021-06-10T14:18:52Z</time>
</trkpt>
<trkpt lat="62.707918" lon="23.865493">
<time>2021-06-10T14:18:53Z</time>
</trkpt>
<trkpt lat="62.70784" lon="23.86555">
<time>2021-06-10T14:18:54Z</time>
</trkpt>
<trkpt lat="62.707762" lon="23.865617">
<time>2021-06-10T14:18:55Z</time>
</trkpt>
<trkpt lat="62.707684" lon="23.865689">
<time>2021-06-10T14:18:56Z</time>
</trkpt>
<trkpt lat="62.707608" lon="23.865769">
<time>2021-06-10T14:18:57Z</time>
</trkpt>
<trkpt lat="62.707531" lon="23.865851">
<time>2021-06-10T14:18:58Z</time>
</trkpt>
<trkpt lat="62.707456" lon="23.865936">
<time>2021-06-10T14:18:59Z</time>
</trkpt>
<trkpt lat="62.707381" lon="23.866019">
<time>2021-06-10T14:19:00Z</time>
</trkpt>
<trkpt lat="62.707309" lon="23.866104">
<time>2021-06-10T14:19:01Z</time>
</trkpt>
<trkpt lat="62.707236" lon="23.866192">
<time>2021-06-10T14:19:02Z</time>
</trkpt>
<trkpt lat="62.707165" lon="23.866286">
<time>2021-06-10T14:19:03Z</time>
</trkpt>
<trkpt lat="62.707094" lon="23.866384">
<time>2021-06-10T14:19:04Z</time>
</trkpt>
<trkpt lat="62.707025" lon="23.866489">
<time>2021-06-10T14:19:05Z</time>
</trkpt>
<trkpt lat="62.706957" lon="23.866598">
<time>2021-06-10T14:19:06Z</time>
</trkpt>
<trkpt lat="62.70689" lon="23.866708">
<time>2021-06-10T14:19:07Z</time>
</trkpt>
<trkpt lat="62.706824" lon="23.866816">
<time>2021-06-10T14:19:08Z</time>
</trkpt>
<trkpt lat="62.706759" lon="23.866925">
<time>2021-06-10T14:19:09Z</time>
</trkpt>
<trkpt lat="62.706695" lon="23.867033">
<time>2021-06-10T14:19:10Z</time>
</trkpt>
<trkpt lat="62.706632" lon="23.867141">
<time>2021-06-10T14:19:11Z</time>
</trkpt>
<trkpt lat="62.70657" lon="23.867246">
<time>2021-06-10T14:19:12Z</time>
</trkpt>
<trkpt lat="62.706509" lon="23.867346">
<time>2021-06-10T14:19:13Z</time>
</trkpt>
<trkpt lat="62.706451" lon="23.867429">
<time>2021-06-10T14:19:14Z</time>
</trkpt>
<trkpt lat="62.706398" lon="23.867458">
<time>2021-06-10T14:19:15Z</time>
</trkpt>
<trkpt lat="62.706356" lon="23.867437">
<time>2021-06-10T14:19:16Z</time>
</trkpt>
<trkpt lat="62.706327" lon="23.867383">
<time>2021-06-10T14:19:17Z</time>
</trkpt>
<trkpt lat="62.706309" lon="23.867327">
<time>2021-06-10T14:19:18Z</time>
</trkpt>
<trkpt lat="62.706301" lon="23.86725">
<time>2021-06-10T14:19:19Z</time>
</trkpt>
<trkpt lat="62.706305" lon="23.867155">
<time>2021-06-10T14:19:20Z</time>
</trkpt>
<trkpt lat="62.706313" lon="23.867042">
<time>2021-06-10T14:19:21Z</time>
</trkpt>
<trkpt lat="62.706322" lon="23.866927">
<time>2021-06-10T14:19:22Z</time>
</trkpt>
<trkpt lat="62.706327" lon="23.866804">
<time>2021-06-10T14:19:23Z</time>
</trkpt>
<trkpt lat="62.706332" lon="23.866682">
<time>2021-06-10T14:19:24Z</time>
</trkpt>
<trkpt lat="62.706341" lon="23.86656">
<time>2021-06-10T14:19:25Z</time>
</trkpt>
<trkpt lat="62.706352" lon="23.86643">
<time>2021-06-10T14:19:26Z</time>
</trkpt>
<trkpt lat="62.706366" lon="23.866296">
<time>2021-06-10T14:19:27Z</time>
</trkpt>
<trkpt lat="62.706381" lon="23.866156">
<time>2021-06-10T14:19:28Z</time>
</trkpt>
<trkpt lat="62.706398" lon="23.86602">
<time>2021-06-10T14:19:29Z</time>
</trkpt>
<trkpt lat="62.706415" lon="23.865885">
<time>2021-06-10T14:19:30Z</time>
</trkpt>
<trkpt lat="62.706436" lon="23.865756">
<time>2021-06-10T14:19:31Z</time>
</trkpt>
<trkpt lat="62.706466" lon="23.865631">
<time>2021-06-10T14:19:32Z</time>
</trkpt>
<trkpt lat="62.706498" lon="23.865511">
<time>2021-06-10T14:19:33Z</time>
</trkpt>
<trkpt lat="62.706529" lon="23.865392">
<time>2021-06-10T14:19:34Z</time>
</trkpt>
<trkpt lat="62.706556" lon="23.86527">
<time>2021-06-10T14:19:35Z</time>
</trkpt>
<trkpt lat="62.706587" lon="23.865148">
<time>2021-06-10T14:19:36Z</time>
</trkpt>
<trkpt lat="62.706626" lon="23.865029">
<time>2021-06-10T14:19:37Z</time>
</trkpt>
<trkpt lat="62.706666" lon="23.864919">
<time>2021-06-10T14:19:38Z</time>
</trkpt>
<trkpt lat="62.70671" lon="23.864817">
<time>2021-06-10T14:19:39Z</time>
</trkpt>
<trkpt lat="62.706751" lon="23.864722">
<time>2021-06-10T14:19:40Z</time>
</trkpt>
<trkpt lat="62.706793" lon="23.86463">
<time>2021-06-10T14:19:41Z</time>
</trkpt>
<trkpt lat="62.706826" lon="23.864537">
<time>2021-06-10T14:19:42Z</time>
</trkpt>
<trkpt lat="62.706852" lon="23.864441">
<time>2021-06-10T14:19:43Z</time>
</trkpt>
<trkpt lat="62.706874" lon="23.864345">
<time>2021-06-10T14:19:44Z</time>
</trkpt>
<trkpt lat="62.706895" lon="23.864253">
<time>2021-06-10T14:19:45Z</time>
</trkpt>
<trkpt lat="62.706917" lon="23.864168">
<time>2021-06-10T14:19:46Z</time>
</trkpt>
<trkpt lat="62.706936" lon="23.864082">
<time>2021-06-10T14:19:47Z</time>
</trkpt>
<trkpt lat="62.706952" lon="23.86399">
<time>2021-06-10T14:19:48Z</time>
</trkpt>
<trkpt lat="62.70696" lon="23.863904">
<time>2021-06-10T14:19:49Z</time>
</trkpt>
<trkpt lat="62.706957" lon="23.863819">
<time>2021-06-10T14:19:50Z</time>
</trkpt>
<trkpt lat="62.706944" lon="23.863732">
<time>2021-06-10T14:19:51Z</time>
</trkpt>
<trkpt lat="62.706928" lon="23.863641">
<time>2021-06-10T14:19:52Z</time>
</trkpt>
<trkpt lat="62.706916" lon="23.863553">
<time>2021-06-10T14:19:53Z</time>
</trkpt>
<trkpt lat="62.706905" lon="23.863474">
<time>2021-06-10T14:19:54Z</time>
</trkpt>
<trkpt lat="62.70689" lon="23.863399">
<time>2021-06-10T14:19:55Z</time>
</trkpt>
<trkpt lat="62.706872" lon="23.863331">
<time>2021-06-10T14:19:56Z</time>
</trkpt>
<trkpt lat="62.706855" lon="23.863266">
<time>2021-06-10T14:19:57Z</time>
</trkpt>
<trkpt lat="62.706843" lon="23.863201">
<time>2021-06-10T14:19:58Z</time>
</trkpt>
<trkpt lat="62.706834" lon="23.86313">
<time>2021-06-10T14:19:59Z</time>
</trkpt>
<trkpt lat="62.706828" lon="23.863064">
<time>2021-06-10T14:20:00Z</time>
</trkpt>
<trkpt lat="62.706823" lon="23.863018">
<time>2021-06-10T14:20:01Z</time>
</trkpt>
<trkpt lat="62.706823" lon="23.863002">
<time>2021-06-10T14:20:02Z</time>
</trkpt>
<trkpt lat="62.706825" lon="23.863017">
<time>2021-06-10T14:20:03Z</time>
</trkpt>
<trkpt lat="62.70683" lon="23.863053">
<time>2021-06-10T14:20:04Z</time>
</trkpt>
<trkpt lat="62.706836" lon="23.863098">
<time>2021-06-10T14:20:05Z</time>
</trkpt>
<trkpt lat="62.706841" lon="23.863139">
<time>2021-06-10T14:20:06Z</time>
</trkpt>
<trkpt lat="62.706844" lon="23.863178">
<time>2021-06-10T14:20:07Z</time>
</trkpt>
<trkpt lat="62.706847" lon="23.863216">
<time>2021-06-10T14:20:08Z</time>
</trkpt>
<trkpt lat="62.70685" lon="23.863258">
<time>2021-06-10T14:20:09Z</time>
</trkpt>
<trkpt lat="62.706859" lon="23.863301">
<time>2021-06-10T14:20:10Z</time>
</trkpt>
<trkpt lat="62.706872" lon="23.863344">
<time>2021-06-10T14:20:11Z</time>
</trkpt>
<trkpt lat="62.706891" lon="23.863388">
<time>2021-06-10T14:20:12Z</time>
</trkpt>
<trkpt lat="62.706914" lon="23.863439">
<time>2021-06-10T14:20:13Z</time>
</trkpt>
<trkpt lat="62.706937" lon="23.863498">
<time>2021-06-10T14:20:14Z</time>
</trkpt>
<trkpt lat="62.706959" lon="23.863571">
<time>2021-06-10T14:20:15Z</time>
</trkpt>
<trkpt lat="62.706978" lon="23.86365">
<time>2021-06-10T14:20:16Z</time>
</trkpt>
<trkpt lat="62.707" lon="23.863734">
<time>2021-06-10T14:20:17Z</time>
</trkpt>
<trkpt lat="62.70702" lon="23.863819">
<time>2021-06-10T14:20:18Z</time>
</trkpt>
<trkpt lat="62.707032" lon="23.863906">
<time>2021-06-10T14:20:19Z</time>
</trkpt>
<trkpt lat="62.70703" lon="23.863994">
<time>2021-06-10T14:20:20Z</time>
</trkpt>
<trkpt lat="62.70702" lon="23.864085">
<time>2021-06-10T14:20:21Z</time>
</trkpt>
<trkpt lat="62.707008" lon="23.864179">
<time>2021-06-10T14:20:22Z</time>
</trkpt>
<trkpt lat="62.706994" lon="23.864275">
<time>2021-06-10T14:20:23Z</time>
</trkpt>
<trkpt lat="62.706978" lon="23.864374">
<time>2021-06-10T14:20:24Z</time>
</trkpt>
<trkpt lat="62.706955" lon="23.864466">
<time>2021-06-10T14:20:25Z</time>
</trkpt>
<trkpt lat="62.706927" lon="23.864552">
<time>2021-06-10T14:20:26Z</time>
</trkpt>
<trkpt lat="62.706891" lon="23.864625">
<time>2021-06-10T14:20:27Z</time>
</trkpt>
<trkpt lat="62.706852" lon="23.864696">
<time>2021-06-10T14:20:28Z</time>
</trkpt>
<trkpt lat="62.706812" lon="23.864769">
<time>2021-06-10T14:20:29Z</time>
</trkpt>
<trkpt lat="62.706775" lon="23.864861">
<time>2021-06-10T14:20:30Z</time>
</trkpt>
<trkpt lat="62.706743" lon="23.864973">
<time>2021-06-10T14:20:31Z</time>
</trkpt>
<trkpt lat="62.706715" lon="23.865095">
<time>2021-06-10T14:20:32Z</time>
</trkpt>
<trkpt lat="62.706688" lon="23.865217">
<time>2021-06-10T14:20:33Z</time>
</trkpt>
<trkpt lat="62.706661" lon="23.865335">
<time>2021-06-10T14:20:34Z</time>
</trkpt>
<trkpt lat="62.706635" lon="23.865461">
<time>2021-06-10T14:20:35Z</time>
</trkpt>
<trkpt lat="62.706612" lon="23.865592">
<time>2021-06-10T14:20:36Z</time>
</trkpt>
<trkpt lat="62.70659" lon="23.865736">
<time>2021-06-10T14:20:37Z</time>
</trkpt>
<trkpt lat="62.706569" lon="23.865885">
<time>2021-06-10T14:20:38Z</time>
</trkpt>
<trkpt lat="62.706549" lon="23.866042">
<time>2021-06-10T14:20:39Z</time>
</trkpt>
<trkpt lat="62.706529" lon="23.866198">
<time>2021-06-10T14:20:40Z</time>
</trkpt>
<trkpt lat="62.706506" lon="23.866351">
<time>2021-06-10T14:20:41Z</time>
</trkpt>
<trkpt lat="62.706484" lon="23.866496">
<time>2021-06-10T14:20:42Z</time>
</trkpt>
<trkpt lat="62.706461" lon="23.866639">
<time>2021-06-10T14:20:43Z</time>
</trkpt>
<trkpt lat="62.706442" lon="23.866781">
<time>2021-06-10T14:20:44Z</time>
</trkpt>
<trkpt lat="62.706423" lon="23.866923">
<time>2021-06-10T14:20:45Z</time>
</trkpt>
<trkpt lat="62.706408" lon="23.867062">
<time>2021-06-10T14:20:46Z</time>
</trkpt>
<trkpt lat="62.706394" lon="23.867199">
<time>2021-06-10T14:20:47Z</time>
</trkpt>
<trkpt lat="62.706378" lon="23.867331">
<time>2021-06-10T14:20:48Z</time>
</trkpt>
<trkpt lat="62.706351" lon="23.867462">
<time>2021-06-10T14:20:49Z</time>
</trkpt>
<trkpt lat="62.706313" lon="23.867585">
<time>2021-06-10T14:20:50Z</time>
</trkpt>
<trkpt lat="62.706265" lon="23.8677">
<time>2021-06-10T14:20:51Z</time>
</trkpt>
<trkpt lat="62.706215" lon="23.867804">
<time>2021-06-10T14:20:52Z</time>
</trkpt>
<trkpt lat="62.706163" lon="23.867905">
<time>2021-06-10T14:20:53Z</time>
</trkpt>
<trkpt lat="62.706111" lon="23.868006">
<time>2021-06-10T14:20:54Z</time>
</trkpt>
<trkpt lat="62.706059" lon="23.868108">
<time>2021-06-10T14:20:55Z</time>
</trkpt>
<trkpt lat="62.706008" lon="23.868208">
<time>2021-06-10T14:20:56Z</time>
</trkpt>
<trkpt lat="62.705957" lon="23.868307">
<time>2021-06-10T14:20:57Z</time>
</trkpt>
<trkpt lat="62.705908" lon="23.868409">
<time>2021-06-10T14:20:58Z</time>
</trkpt>
<trkpt lat="62.705858" lon="23.868513">
<time>2021-06-10T14:20:59Z</time>
</trkpt>
<trkpt lat="62.70581" lon="23.86862">
<time>2021-06-10T14:21:00Z</time>
</trkpt>
<trkpt lat="62.705764" lon="23.868731">
<time>2021-06-10T14:21:01Z</time>
</trkpt>
<trkpt lat="62.705718" lon="23.868848">
<time>2021-06-10T14:21:02Z</time>
</trkpt>
<trkpt lat="62.705676" lon="23.868969">
<time>2021-06-10T14:21:03Z</time>
</trkpt>
<trkpt lat="62.705637" lon="23.869096">
<time>2021-06-10T14:21:04Z</time>
</trkpt>
<trkpt lat="62.705601" lon="23.869228">
<time>2021-06-10T14:21:05Z</time>
</trkpt>
<trkpt lat="62.705565" lon="23.869366">
<time>2021-06-10T14:21:06Z</time>
</trkpt>
<trkpt lat="62.705533" lon="23.869507">
<time>2021-06-10T14:21:07Z</time>
</trkpt>
<trkpt lat="62.705506" lon="23.869646">
<time>2021-06-10T14:21:08Z</time>
</trkpt>
<trkpt lat="62.705486" lon="23.869783">
<time>2021-06-10T14:21:09Z</time>
</trkpt>
<trkpt lat="62.705471" lon="23.869916">
<time>2021-06-10T14:21:10Z</time>
</trkpt>
<trkpt lat="62.705459" lon="23.870048">
<time>2021-06-10T14:21:11Z</time>
</trkpt>
<trkpt lat="62.705449" lon="23.870179">
<time>2021-06-10T14:21:12Z</time>
</trkpt>
<trkpt lat="62.70544" lon="23.870308">
<time>2021-06-10T14:21:13Z</time>
</trkpt>
<trkpt lat="62.705435" lon="23.870424">
<time>2021-06-10T14:21:14Z</time>
</trkpt>
<trkpt lat="62.705437" lon="23.870515">
<time>2021-06-10T14:21:15Z</time>
</trkpt>
<trkpt lat="62.705445" lon="23.870573">
<time>2021-06-10T14:21:16Z</time>
</trkpt>
<trkpt lat="62.705455" lon="23.870599">
<time>2021-06-10T14:21:17Z</time>
</trkpt>
<trkpt lat="62.70547" lon="23.870603">
<time>2021-06-10T14:21:18Z</time>
</trkpt>
<trkpt lat="62.70549" lon="23.870593">
<time>2021-06-10T14:21:19Z</time>
</trkpt>
<trkpt lat="62.705514" lon="23.870578">
<time>2021-06-10T14:21:20Z</time>
</trkpt>
<trkpt lat="62.70554" lon="23.870566">
<time>2021-06-10T14:21:21Z</time>
</trkpt>
<trkpt lat="62.705569" lon="23.870556">
<time>2021-06-10T14:21:22Z</time>
</trkpt>
<trkpt lat="62.705603" lon="23.870555">
<time>2021-06-10T14:21:23Z</time>
</trkpt>
<trkpt lat="62.70564" lon="23.870554">
<time>2021-06-10T14:21:24Z</time>
</trkpt>
<trkpt lat="62.705682" lon="23.870547">
<time>2021-06-10T14:21:25Z</time>
</trkpt>
<trkpt lat="62.705725" lon="23.870531">
<time>2021-06-10T14:21:26Z</time>
</trkpt>
<trkpt lat="62.705772" lon="23.870502">
<time>2021-06-10T14:21:27Z</time>
</trkpt>
<trkpt lat="62.70582" lon="23.870473">
<time>2021-06-10T14:21:28Z</time>
</trkpt>
<trkpt lat="62.705874" lon="23.870446">
<time>2021-06-10T14:21:29Z</time>
</trkpt>
<trkpt lat="62.705925" lon="23.870432">
<time>2021-06-10T14:21:30Z</time>
</trkpt>
<trkpt lat="62.705975" lon="23.870419">
<time>2021-06-10T14:21:31Z</time>
</trkpt>
<trkpt lat="62.706021" lon="23.870407">
<time>2021-06-10T14:21:32Z</time>
</trkpt>
<trkpt lat="62.706067" lon="23.870397">
<time>2021-06-10T14:21:33Z</time>
</trkpt>
<trkpt lat="62.706113" lon="23.870406">
<time>2021-06-10T14:21:34Z</time>
</trkpt>
<trkpt lat="62.706154" lon="23.870449">
<time>2021-06-10T14:21:35Z</time>
</trkpt>
<trkpt lat="62.706182" lon="23.870521">
<time>2021-06-10T14:21:36Z</time>
</trkpt>
<trkpt lat="62.706205" lon="23.870599">
<time>2021-06-10T14:21:37Z</time>
</trkpt>
<trkpt lat="62.706229" lon="23.870657">
<time>2021-06-10T14:21:38Z</time>
</trkpt>
<trkpt lat="62.706256" lon="23.870691">
<time>2021-06-10T14:21:39Z</time>
</trkpt>
<trkpt lat="62.706281" lon="23.87071">
<time>2021-06-10T14:21:40Z</time>
</trkpt>
<trkpt lat="62.706299" lon="23.870731">
<time>2021-06-10T14:21:41Z</time>
</trkpt>
<trkpt lat="62.706317" lon="23.870762">
<time>2021-06-10T14:21:42Z</time>
</trkpt>
<trkpt lat="62.706338" lon="23.870802">
<time>2021-06-10T14:21:43Z</time>
</trkpt>
<trkpt lat="62.70636" lon="23.870843">
<time>2021-06-10T14:21:44Z</time>
</trkpt>
<trkpt lat="62.70638" lon="23.87088">
<time>2021-06-10T14:21:45Z</time>
</trkpt>
<trkpt lat="62.706396" lon="23.870909">
<time>2021-06-10T14:21:46Z</time>
</trkpt>
<trkpt lat="62.706407" lon="23.870935">
<time>2021-06-10T14:21:47Z</time>
</trkpt>
<trkpt lat="62.706414" lon="23.87096">
<time>2021-06-10T14:21:48Z</time>
</trkpt>
<trkpt lat="62.706411" lon="23.870984">
<time>2021-06-10T14:21:49Z</time>
</trkpt>
<trkpt lat="62.706399" lon="23.871004">
<time>2021-06-10T14:21:50Z</time>
</trkpt>
<trkpt lat="62.706378" lon="23.871021">
<time>2021-06-10T14:21:51Z</time>
</trkpt>
<trkpt lat="62.706352" lon="23.871036">
<time>2021-06-10T14:21:52Z</time>
</trkpt>
<trkpt lat="62.706324" lon="23.87105">
<time>2021-06-10T14:21:53Z</time>
</trkpt>
<trkpt lat="62.706292" lon="23.871062">
<time>2021-06-10T14:21:54Z</time>
</trkpt>
<trkpt lat="62.70626" lon="23.871069">
<time>2021-06-10T14:21:55Z</time>
</trkpt>
<trkpt lat="62.706224" lon="23.87107">
<time>2021-06-10T14:21:56Z</time>
</trkpt>
<trkpt lat="62.706187" lon="23.871064">
<time>2021-06-10T14:21:57Z</time>
</trkpt>
<trkpt lat="62.706147" lon="23.871059">
<time>2021-06-10T14:21:58Z</time>
</trkpt>
<trkpt lat="62.706106" lon="23.871068">
<time>2021-06-10T14:21:59Z</time>
</trkpt>
<trkpt lat="62.70607" lon="23.871103">
<time>2021-06-10T14:22:00Z</time>
</trkpt>
<trkpt lat="62.706046" lon="23.871169">
<time>2021-06-10T14:22:01Z</time>
</trkpt>
<trkpt lat="62.706031" lon="23.871254">
<time>2021-06-10T14:22:02Z</time>
</trkpt>
<trkpt lat="62.706023" lon="23.871347">
<time>2021-06-10T14:22:03Z</time>
</trkpt>
<trkpt lat="62.706011" lon="23.871428">
<time>2021-06-10T14:22:04Z</time>
</trkpt>
<trkpt lat="62.705995" lon="23.871487">
<time>2021-06-10T14:22:05Z</time>
</trkpt>
<trkpt lat="62.705971" lon="23.871521">
<time>2021-06-10T14:22:06Z</time>
</trkpt>
<trkpt lat="62.70594" lon="23.871537">
<time>2021-06-10T14:22:07Z</time>
</trkpt>
<trkpt lat="62.705897" lon="23.871543">
<time>2021-06-10T14:22:08Z</time>
</trkpt>
<trkpt lat="62.705844" lon="23.871541">
<time>2021-06-10T14:22:09Z</time>
</trkpt>
<trkpt lat="62.705787" lon="23.871541">
<time>2021-06-10T14:22:10Z</time>
</trkpt>
<trkpt lat="62.705735" lon="23.87155">
<time>2021-06-10T14:22:11Z</time>
</trkpt>
<trkpt lat="62.705689" lon="23.871576">
<time>2021-06-10T14:22:12Z</time>
</trkpt>
<trkpt lat="62.705646" lon="23.871608">
<time>2021-06-10T14:22:13Z</time>
</trkpt>
<trkpt lat="62.705603" lon="23.871643">
<time>2021-06-10T14:22:14Z</time>
</trkpt>
<trkpt lat="62.705561" lon="23.871671">
<time>2021-06-10T14:22:15Z</time>
</trkpt>
<trkpt lat="62.705518" lon="23.871695">
<time>2021-06-10T14:22:16Z</time>
</trkpt>
<trkpt lat="62.705477" lon="23.871716">
<time>2021-06-10T14:22:17Z</time>
</trkpt>
<trkpt lat="62.705436" lon="23.871736">
<time>2021-06-10T14:22:18Z</time>
</trkpt>
<trkpt lat="62.705402" lon="23.871754">
<time>2021-06-10T14:22:19Z</time>
</trkpt>
<trkpt lat="62.705374" lon="23.871769">
<time>2021-06-10T14:22:20Z</time>
</trkpt>
<trkpt lat="62.705353" lon="23.871783">
<time>2021-06-10T14:22:21Z</time>
</trkpt>
<trkpt lat="62.705333" lon="23.871795">
<time>2021-06-10T14:22:22Z</time>
</trkpt>
<trkpt lat="62.705311" lon="23.871804">
<time>2021-06-10T14:22:23Z</time>
</trkpt>
<trkpt lat="62.705283" lon="23.871809">
<time>2021-06-10T14:22:24Z</time>
</trkpt>
<trkpt lat="62.705248" lon="23.871805">
<time>2021-06-10T14:22:25Z</time>
</trkpt>
<trkpt lat="62.705205" lon="23.87179">
<time>2021-06-10T14:22:26Z</time>
</trkpt>
<trkpt lat="62.705153" lon="23.871762">
<time>2021-06-10T14:22:27Z</time>
</trkpt>
<trkpt lat="62.705093" lon="23.87173">
<time>2021-06-10T14:22:28Z</time>
</trkpt>
<trkpt lat="62.705025" lon="23.871701">
<time>2021-06-10T14:22:29Z</time>
</trkpt>
<trkpt lat="62.704948" lon="23.871688">
<time>2021-06-10T14:22:30Z</time>
</trkpt>
<trkpt lat="62.704869" lon="23.871692">
<time>2021-06-10T14:22:31Z</time>
</trkpt>
<trkpt lat="62.704791" lon="23.871713">
<time>2021-06-10T14:22:32Z</time>
</trkpt>
<trkpt lat="62.70472" lon="23.871749">
<time>2021-06-10T14:22:33Z</time>
</trkpt>
<trkpt lat="62.704653" lon="23.871797">
<time>2021-06-10T14:22:34Z</time>
</trkpt>
<trkpt lat="62.704593" lon="23.871863">
<time>2021-06-10T14:22:35Z</time>
</trkpt>
<trkpt lat="62.704537" lon="23.871943">
<time>2021-06-10T14:22:36Z</time>
</trkpt>
<trkpt lat="62.704483" lon="23.872029">
<time>2021-06-10T14:22:37Z</time>
</trkpt>
<trkpt lat="62.704426" lon="23.872105">
<time>2021-06-10T14:22:38Z</time>
</trkpt>
<trkpt lat="62.704363" lon="23.872168">
<time>2021-06-10T14:22:39Z</time>
</trkpt>
<trkpt lat="62.704295" lon="23.872219">
<time>2021-06-10T14:22:40Z</time>
</trkpt>
<trkpt lat="62.704223" lon="23.872265">
<time>2021-06-10T14:22:41Z</time>
</trkpt>
<trkpt lat="62.70415" lon="23.87231">
<time>2021-06-10T14:22:42Z</time>
</trkpt>
<trkpt lat="62.704078" lon="23.872354">
<time>2021-06-10T14:22:43Z</time>
</trkpt>
<trkpt lat="62.704006" lon="23.872394">
<time>2021-06-10T14:22:44Z</time>
</trkpt>
<trkpt lat="62.703934" lon="23.872433">
<time>2021-06-10T14:22:45Z</time>
</trkpt>
<trkpt lat="62.703861" lon="23.872474">
<time>2021-06-10T14:22:46Z</time>
</trkpt>
<trkpt lat="62.703786" lon="23.872518">
<time>2021-06-10T14:22:47Z</time>
</trkpt>
<trkpt lat="62.703712" lon="23.872569">
<time>2021-06-10T14:22:48Z</time>
</trkpt>
<trkpt lat="62.703638" lon="23.872622">
<time>2021-06-10T14:22:49Z</time>
</trkpt>
<trkpt lat="62.703564" lon="23.872681">
<time>2021-06-10T14:22:50Z</time>
</trkpt>
<trkpt lat="62.703491" lon="23.872746">
<time>2021-06-10T14:22:51Z</time>
</trkpt>
<trkpt lat="62.70342" lon="23.872817">
<time>2021-06-10T14:22:52Z</time>
</trkpt>
<trkpt lat="62.703351" lon="23.872886">
<time>2021-06-10T14:22:53Z</time>
</trkpt>
<trkpt lat="62.703283" lon="23.872943">
<time>2021-06-10T14:22:54Z</time>
</trkpt>
<trkpt lat="62.703215" lon="23.872978">
<time>2021-06-10T14:22:55Z</time>
</trkpt>
<trkpt lat="62.703146" lon="23.872988">
<time>2021-06-10T14:22:56Z</time>
</trkpt>
<trkpt lat="62.703079" lon="23.872969">
<time>2021-06-10T14:22:57Z</time>
</trkpt>
<trkpt lat="62.703015" lon="23.872921">
<time>2021-06-10T14:22:58Z</time>
</trkpt>
<trkpt lat="62.702959" lon="23.87284">
<time>2021-06-10T14:22:59Z</time>
</trkpt>
<trkpt lat="62.702919" lon="23.872735">
<time>2021-06-10T14:23:00Z</time>
</trkpt>
<trkpt lat="62.702892" lon="23.872616">
<time>2021-06-10T14:23:01Z</time>
</trkpt>
<trkpt lat="62.702877" lon="23.872495">
<time>2021-06-10T14:23:02Z</time>
</trkpt>
<trkpt lat="62.702877" lon="23.872377">
<time>2021-06-10T14:23:03Z</time>
</trkpt>
<trkpt lat="62.702892" lon="23.872252">
<time>2021-06-10T14:23:04Z</time>
</trkpt>
<trkpt lat="62.702913" lon="23.872123">
<time>2021-06-10T14:23:05Z</time>
</trkpt>
<trkpt lat="62.702926" lon="23.871988">
<time>2021-06-10T14:23:06Z</time>
</trkpt>
<trkpt lat="62.702932" lon="23.871859">
<time>2021-06-10T14:23:07Z</time>
</trkpt>
<trkpt lat="62.702939" lon="23.871729">
<time>2021-06-10T14:23:08Z</time>
</trkpt>
<trkpt lat="62.702941" lon="23.871605">
<time>2021-06-10T14:23:09Z</time>
</trkpt>
<trkpt lat="62.702943" lon="23.871481">
<time>2021-06-10T14:23:10Z</time>
</trkpt>
<trkpt lat="62.702941" lon="23.871365">
<time>2021-06-10T14:23:11Z</time>
</trkpt>
<trkpt lat="62.702945" lon="23.871252">
<time>2021-06-10T14:23:12Z</time>
</trkpt>
<trkpt lat="62.702949" lon="23.871145">
<time>2021-06-10T14:23:13Z</time>
</trkpt>
<trkpt lat="62.702951" lon="23.871053">
<time>2021-06-10T14:23:14Z</time>
</trkpt>
<trkpt lat="62.702947" lon="23.870973">
<time>2021-06-10T14:23:15Z</time>
</trkpt>
<trkpt lat="62.702942" lon="23.870904">
<time>2021-06-10T14:23:16Z</time>
</trkpt>
<trkpt lat="62.702934" lon="23.870834">
<time>2021-06-10T14:23:17Z</time>
</trkpt>
<trkpt lat="62.702925" lon="23.870761">
<time>2021-06-10T14:23:18Z</time>
</trkpt>
<trkpt lat="62.702911" lon="23.870682">
<time>2021-06-10T14:23:19Z</time>
</trkpt>
<trkpt lat="62.702895" lon="23.870598">
<time>2021-06-10T14:23:20Z</time>
</trkpt>
<trkpt lat="62.702876" lon="23.870507">
<time>2021-06-10T14:23:21Z</time>
</trkpt>
<trkpt lat="62.702855" lon="23.870412">
<time>2021-06-10T14:23:22Z</time>
</trkpt>
<trkpt lat="62.702833" lon="23.87031">
<time>2021-06-10T14:23:23Z</time>
</trkpt>
<trkpt lat="62.702811" lon="23.870206">
<time>2021-06-10T14:23:24Z</time>
</trkpt>
<trkpt lat="62.702794" lon="23.870107">
<time>2021-06-10T14:23:25Z</time>
</trkpt>
<trkpt lat="62.702779" lon="23.870025">
<time>2021-06-10T14:23:26Z</time>
</trkpt>
<trkpt lat="62.702777" lon="23.869988">
<time>2021-06-10T14:23:27Z</time>
</trkpt>
<trkpt lat="62.702784" lon="23.869983">
<time>2021-06-10T14:23:28Z</time>
</trkpt>
<trkpt lat="62.702801" lon="23.870008">
<time>2021-06-10T14:23:29Z</time>
</trkpt>
<trkpt lat="62.702817" lon="23.870052">
<time>2021-06-10T14:23:30Z</time>
</trkpt>
<trkpt lat="62.70283" lon="23.870115">
<time>2021-06-10T14:23:31Z</time>
</trkpt>
<trkpt lat="62.702843" lon="23.870198">
<time>2021-06-10T14:23:32Z</time>
</trkpt>
<trkpt lat="62.702857" lon="23.870275">
<time>2021-06-10T14:23:33Z</time>
</trkpt>
<trkpt lat="62.702874" lon="23.870361">
<time>2021-06-10T14:23:34Z</time>
</trkpt>
<trkpt lat="62.702892" lon="23.87044">
<time>2021-06-10T14:23:35Z</time>
</trkpt>
<trkpt lat="62.702916" lon="23.870522">
<time>2021-06-10T14:23:36Z</time>
</trkpt>
<trkpt lat="62.70294" lon="23.870614">
<time>2021-06-10T14:23:37Z</time>
</trkpt>
<trkpt lat="62.702961" lon="23.870722">
<time>2021-06-10T14:23:38Z</time>
</trkpt>
<trkpt lat="62.702978" lon="23.870844">
<time>2021-06-10T14:23:39Z</time>
</trkpt>
<trkpt lat="62.702991" lon="23.870969">
<time>2021-06-10T14:23:40Z</time>
</trkpt>
<trkpt lat="62.703005" lon="23.871107">
<time>2021-06-10T14:23:41Z</time>
</trkpt>
<trkpt lat="62.703016" lon="23.87126">
<time>2021-06-10T14:23:42Z</time>
</trkpt>
<trkpt lat="62.703025" lon="23.871427">
<time>2021-06-10T14:23:43Z</time>
</trkpt>
<trkpt lat="62.703031" lon="23.8716">
<time>2021-06-10T14:23:44Z</time>
</trkpt>
<trkpt lat="62.703038" lon="23.871771">
<time>2021-06-10T14:23:45Z</time>
</trkpt>
<trkpt lat="62.703042" lon="23.871931">
<time>2021-06-10T14:23:46Z</time>
</trkpt>
<trkpt lat="62.70304" lon="23.87208">
<time>2021-06-10T14:23:47Z</time>
</trkpt>
<trkpt lat="62.703018" lon="23.872215">
<time>2021-06-10T14:23:48Z</time>
</trkpt>
<trkpt lat="62.702986" lon="23.872334">
<time>2021-06-10T14:23:49Z</time>
</trkpt>
<trkpt lat="62.702954" lon="23.872437">
<time>2021-06-10T14:23:50Z</time>
</trkpt>
<trkpt lat="62.702937" lon="23.872537">
<time>2021-06-10T14:23:51Z</time>
</trkpt>
<trkpt lat="62.702932" lon="23.872646">
<time>2021-06-10T14:23:52Z</time>
</trkpt>
<trkpt lat="62.702934" lon="23.872754">
<time>2021-06-10T14:23:53Z</time>
</trkpt>
<trkpt lat="62.702949" lon="23.872853">
<time>2021-06-10T14:23:54Z</time>
</trkpt>
<trkpt lat="62.702975" lon="23.872929">
<time>2021-06-10T14:23:55Z</time>
</trkpt>
<trkpt lat="62.703011" lon="23.872987">
<time>2021-06-10T14:23:56Z</time>
</trkpt>
<trkpt lat="62.703055" lon="23.873017">
<time>2021-06-10T14:23:57Z</time>
</trkpt>
<trkpt lat="62.703105" lon="23.873018">
<time>2021-06-10T14:23:58Z</time>
</trkpt>
<trkpt lat="62.703159" lon="23.873001">
<time>2021-06-10T14:23:59Z</time>
</trkpt>
<trkpt lat="62.703211" lon="23.872975">
<time>2021-06-10T14:24:00Z</time>
</trkpt>
<trkpt lat="62.703261" lon="23.872943">
<time>2021-06-10T14:24:01Z</time>
</trkpt>
<trkpt lat="62.703313" lon="23.872905">
<time>2021-06-10T14:24:02Z</time>
</trkpt>
<trkpt lat="62.703366" lon="23.872873">
<time>2021-06-10T14:24:03Z</time>
</trkpt>
<trkpt lat="62.70342" lon="23.872865">
<time>2021-06-10T14:24:04Z</time>
</trkpt>
<trkpt lat="62.703473" lon="23.872891">
<time>2021-06-10T14:24:05Z</time>
</trkpt>
<trkpt lat="62.703521" lon="23.872948">
<time>2021-06-10T14:24:06Z</time>
</trkpt>
<trkpt lat="62.703555" lon="23.873033">
<time>2021-06-10T14:24:07Z</time>
</trkpt>
<trkpt lat="62.703576" lon="23.873133">
<time>2021-06-10T14:24:08Z</time>
</trkpt>
<trkpt lat="62.703585" lon="23.873246">
<time>2021-06-10T14:24:09Z</time>
</trkpt>
<trkpt lat="62.703591" lon="23.873361">
<time>2021-06-10T14:24:10Z</time>
</trkpt>
<trkpt lat="62.703591" lon="23.873482">
<time>2021-06-10T14:24:11Z</time>
</trkpt>
<trkpt lat="62.70359" lon="23.873605">
<time>2021-06-10T14:24:12Z</time>
</trkpt>
<trkpt lat="62.703595" lon="23.873727">
<time>2021-06-10T14:24:13Z</time>
</trkpt>
<trkpt lat="62.703609" lon="23.873842">
<time>2021-06-10T14:24:14Z</time>
</trkpt>
<trkpt lat="62.703632" lon="23.873946">
<time>2021-06-10T14:24:15Z</time>
</trkpt>
<trkpt lat="62.703665" lon="23.874033">
<time>2021-06-10T14:24:16Z</time>
</trkpt>
<trkpt lat="62.703703" lon="23.874106">
<time>2021-06-10T14:24:17Z</time>
</trkpt>
<trkpt lat="62.703732" lon="23.874171">
<time>2021-06-10T14:24:18Z</time>
</trkpt>
<trkpt lat="62.703745" lon="23.874233">
<time>2021-06-10T14:24:19Z</time>
</trkpt>
<trkpt lat="62.703743" lon="23.874277">
<time>2021-06-10T14:24:20Z</time>
</trkpt>
<trkpt lat="62.703735" lon="23.874308">
<time>2021-06-10T14:24:21Z</time>
</trkpt>
<trkpt lat="62.703727" lon="23.874336">
<time>2021-06-10T14:24:22Z</time>
</trkpt>
<trkpt lat="62.703724" lon="23.874377">
<time>2021-06-10T14:24:23Z</time>
</trkpt>
<trkpt lat="62.703727" lon="23.874428">
<time>2021-06-10T14:24:24Z</time>
</trkpt>
<trkpt lat="62.703734" lon="23.874487">
<time>2021-06-10T14:24:25Z</time>
</trkpt>
<trkpt lat="62.703742" lon="23.874542">
<time>2021-06-10T14:24:26Z</time>
</trkpt>
<trkpt lat="62.703749" lon="23.874593">
<time>2021-06-10T14:24:27Z</time>
</trkpt>
<trkpt lat="62.703754" lon="23.874633">
<time>2021-06-10T14:24:28Z</time>
</trkpt>
<trkpt lat="62.703761" lon="23.874657">
<time>2021-06-10T14:24:29Z</time>
</trkpt>
<trkpt lat="62.70377" lon="23.874675">
<time>2021-06-10T14:24:30Z</time>
</trkpt>
<trkpt lat="62.703781" lon="23.874691">
<time>2021-06-10T14:24:31Z</time>
</trkpt>
<trkpt lat="62.703791" lon="23.874715">
<time>2021-06-10T14:24:32Z</time>
</trkpt>
<trkpt lat="62.703799" lon="23.874734">
<time>2021-06-10T14:24:33Z</time>
</trkpt>
<trkpt lat="62.703803" lon="23.874751">
<time>2021-06-10T14:24:34Z</time>
</trkpt>
<trkpt lat="62.703806" lon="23.874767">
<time>2021-06-10T14:24:35Z</time>
</trkpt>
<trkpt lat="62.703809" lon="23.87478">
<time>2021-06-10T14:24:36Z</time>
</trkpt>
<trkpt lat="62.703814" lon="23.874788">
<time>2021-06-10T14:24:37Z</time>
</trkpt>
<trkpt lat="62.70382" lon="23.874794">
<time>2021-06-10T14:24:38Z</time>
</trkpt>
<trkpt lat="62.703826" lon="23.874798">
<time>2021-06-10T14:24:39Z</time>
</trkpt>
<trkpt lat="62.703831" lon="23.874806">
<time>2021-06-10T14:24:40Z</time>
</trkpt>
<trkpt lat="62.703837" lon="23.874817">
<time>2021-06-10T14:24:41Z</time>
</trkpt>
<trkpt lat="62.703843" lon="23.87483">
<time>2021-06-10T14:24:42Z</time>
</trkpt>
<trkpt lat="62.703849" lon="23.874849">
<time>2021-06-10T14:24:43Z</time>
</trkpt>
<trkpt lat="62.703852" lon="23.874874">
<time>2021-06-10T14:24:44Z</time>
</trkpt>
<trkpt lat="62.703848" lon="23.87491">
<time>2021-06-10T14:24:45Z</time>
</trkpt>
<trkpt lat="62.703838" lon="23.874953">
<time>2021-06-10T14:24:46Z</time>
</trkpt>
<trkpt lat="62.703823" lon="23.874996">
<time>2021-06-10T14:24:47Z</time>
</trkpt>
<trkpt lat="62.703806" lon="23.875036">
<time>2021-06-10T14:24:48Z</time>
</trkpt>
<trkpt lat="62.70378" lon="23.87507">
<time>2021-06-10T14:24:49Z</time>
</trkpt>
<trkpt lat="62.703744" lon="23.875118">
<time>2021-06-10T14:24:50Z</time>
</trkpt>
<trkpt lat="62.703702" lon="23.875176">
<time>2021-06-10T14:24:51Z</time>
</trkpt>
<trkpt lat="62.703662" lon="23.875244">
<time>2021-06-10T14:24:52Z</time>
</trkpt>
<trkpt lat="62.703626" lon="23.875318">
<time>2021-06-10T14:24:53Z</time>
</trkpt>
<trkpt lat="62.70359" lon="23.875398">
<time>2021-06-10T14:24:54Z</time>
</trkpt>
<trkpt lat="62.703553" lon="23.875481">
<time>2021-06-10T14:24:55Z</time>
</trkpt>
<trkpt lat="62.703514" lon="23.87556">
<time>2021-06-10T14:24:56Z</time>
</trkpt>
<trkpt lat="62.703474" lon="23.875638">
<time>2021-06-10T14:24:57Z</time>
</trkpt>
<trkpt lat="62.703434" lon="23.87572">
<time>2021-06-10T14:24:58Z</time>
</trkpt>
<trkpt lat="62.703393" lon="23.875803">
<time>2021-06-10T14:24:59Z</time>
</trkpt>
<trkpt lat="62.703351" lon="23.875879">
<time>2021-06-10T14:25:00Z</time>
</trkpt>
<trkpt lat="62.703304" lon="23.875948">
<time>2021-06-10T14:25:01Z</time>
</trkpt>
<trkpt lat="62.703255" lon="23.876013">
<time>2021-06-10T14:25:02Z</time>
</trkpt>
<trkpt lat="62.703206" lon="23.876082">
<time>2021-06-10T14:25:03Z</time>
</trkpt>
<trkpt lat="62.703156" lon="23.876154">
<time>2021-06-10T14:25:04Z</time>
</trkpt>
<trkpt lat="62.703107" lon="23.876233">
<time>2021-06-10T14:25:05Z</time>
</trkpt>
<trkpt lat="62.703061" lon="23.876319">
<time>2021-06-10T14:25:06Z</time>
</trkpt>
<trkpt lat="62.703028" lon="23.876421">
<time>2021-06-10T14:25:07Z</time>
</trkpt>
<trkpt lat="62.70301" lon="23.876547">
<time>2021-06-10T14:25:08Z</time>
</trkpt>
<trkpt lat="62.703004" lon="23.876696">
<time>2021-06-10T14:25:09Z</time>
</trkpt>
<trkpt lat="62.703002" lon="23.876852">
<time>2021-06-10T14:25:10Z</time>
</trkpt>
<trkpt lat="62.703005" lon="23.877002">
<time>2021-06-10T14:25:11Z</time>
</trkpt>
<trkpt lat="62.703014" lon="23.877142">
<time>2021-06-10T14:25:12Z</time>
</trkpt>
<trkpt lat="62.703028" lon="23.877275">
<time>2021-06-10T14:25:13Z</time>
</trkpt>
<trkpt lat="62.703044" lon="23.877403">
<time>2021-06-10T14:25:14Z</time>
</trkpt>
<trkpt lat="62.703055" lon="23.87752">
<time>2021-06-10T14:25:15Z</time>
</trkpt>
<trkpt lat="62.703062" lon="23.877618">
<time>2021-06-10T14:25:16Z</time>
</trkpt>
<trkpt lat="62.703062" lon="23.877686">
<time>2021-06-10T14:25:17Z</time>
</trkpt>
<trkpt lat="62.703061" lon="23.877726">
<time>2021-06-10T14:25:18Z</time>
</trkpt>
<trkpt lat="62.703063" lon="23.877714">
<time>2021-06-10T14:25:19Z</time>
</trkpt>
<trkpt lat="62.703066" lon="23.877659">
<time>2021-06-10T14:25:20Z</time>
</trkpt>
<trkpt lat="62.703072" lon="23.877569">
<time>2021-06-10T14:25:21Z</time>
</trkpt>
<trkpt lat="62.703067" lon="23.877482">
<time>2021-06-10T14:25:22Z</time>
</trkpt>
<trkpt lat="62.703054" lon="23.877401">
<time>2021-06-10T14:25:23Z</time>
</trkpt>
<trkpt lat="62.703029" lon="23.877326">
<time>2021-06-10T14:25:24Z</time>
</trkpt>
<trkpt lat="62.703006" lon="23.877254">
<time>2021-06-10T14:25:25Z</time>
</trkpt>
<trkpt lat="62.702985" lon="23.877178">
<time>2021-06-10T14:25:26Z</time>
</trkpt>
<trkpt lat="62.702971" lon="23.877098">
<time>2021-06-10T14:25:27Z</time>
</trkpt>
<trkpt lat="62.702961" lon="23.877015">
<time>2021-06-10T14:25:28Z</time>
</trkpt>
<trkpt lat="62.702955" lon="23.876937">
<time>2021-06-10T14:25:29Z</time>
</trkpt>
<trkpt lat="62.70295" lon="23.87686">
<time>2021-06-10T14:25:30Z</time>
</trkpt>
<trkpt lat="62.702942" lon="23.87679">
<time>2021-06-10T14:25:31Z</time>
</trkpt>
<trkpt lat="62.702932" lon="23.876728">
<time>2021-06-10T14:25:32Z</time>
</trkpt>
<trkpt lat="62.702921" lon="23.876689">
<time>2021-06-10T14:25:33Z</time>
</trkpt>
<trkpt lat="62.702904" lon="23.876673">
<time>2021-06-10T14:25:34Z</time>
</trkpt>
<trkpt lat="62.702881" lon="23.876672">
<time>2021-06-10T14:25:35Z</time>
</trkpt>
<trkpt lat="62.702857" lon="23.876671">
<time>2021-06-10T14:25:36Z</time>
</trkpt>
<trkpt lat="62.702841" lon="23.876661">
<time>2021-06-10T14:25:37Z</time>
</trkpt>
<trkpt lat="62.702829" lon="23.876649">
<time>2021-06-10T14:25:38Z</time>
</trkpt>
<trkpt lat="62.702824" lon="23.876639">
<time>2021-06-10T14:25:39Z</time>
</trkpt>
<trkpt lat="62.702814" lon="23.876631">
<time>2021-06-10T14:25:40Z</time>
</trkpt>
<trkpt lat="62.70279" lon="23.876617">
<time>2021-06-10T14:25:41Z</time>
</trkpt>
<trkpt lat="62.702742" lon="23.876592">
<time>2021-06-10T14:25:42Z</time>
</trkpt>
<trkpt lat="62.702681" lon="23.876561">
<time>2021-06-10T14:25:43Z</time>
</trkpt>
<trkpt lat="62.702613" lon="23.876523">
<time>2021-06-10T14:25:44Z</time>
</trkpt>
<trkpt lat="62.702548" lon="23.87648">
<time>2021-06-10T14:25:45Z</time>
</trkpt>
<trkpt lat="62.702483" lon="23.876423">
<time>2021-06-10T14:25:46Z</time>
</trkpt>
<trkpt lat="62.702422" lon="23.876366">
<time>2021-06-10T14:25:47Z</time>
</trkpt>
<trkpt lat="62.702364" lon="23.87631">
<time>2021-06-10T14:25:48Z</time>
</trkpt>
<trkpt lat="62.702309" lon="23.876261">
<time>2021-06-10T14:25:49Z</time>
</trkpt>
<trkpt lat="62.702255" lon="23.876218">
<time>2021-06-10T14:25:50Z</time>
</trkpt>
<trkpt lat="62.702201" lon="23.876183">
<time>2021-06-10T14:25:51Z</time>
</trkpt>
<trkpt lat="62.702146" lon="23.876156">
<time>2021-06-10T14:25:52Z</time>
</trkpt>
<trkpt lat="62.70209" lon="23.876131">
<time>2021-06-10T14:25:53Z</time>
</trkpt>
<trkpt lat="62.702032" lon="23.876104">
<time>2021-06-10T14:25:54Z</time>
</trkpt>
<trkpt lat="62.701973" lon="23.876079">
<time>2021-06-10T14:25:55Z</time>
</trkpt>
<trkpt lat="62.701916" lon="23.876058">
<time>2021-06-10T14:25:56Z</time>
</trkpt>
<trkpt lat="62.70186" lon="23.87604">
<time>2021-06-10T14:25:57Z</time>
</trkpt>
<trkpt lat="62.701805" lon="23.876006">
<time>2021-06-10T14:25:58Z</time>
</trkpt>
<trkpt lat="62.70176" lon="23.87594">
<time>2021-06-10T14:25:59Z</time>
</trkpt>
<trkpt lat="62.701726" lon="23.875852">
<time>2021-06-10T14:26:00Z</time>
</trkpt>
<trkpt lat="62.701708" lon="23.875749">
<time>2021-06-10T14:26:01Z</time>
</trkpt>
<trkpt lat="62.701692" lon="23.875648">
<time>2021-06-10T14:26:02Z</time>
</trkpt>
<trkpt lat="62.701681" lon="23.875537">
<time>2021-06-10T14:26:03Z</time>
</trkpt>
<trkpt lat="62.701667" lon="23.875421">
<time>2021-06-10T14:26:04Z</time>
</trkpt>
<trkpt lat="62.701663" lon="23.875297">
<time>2021-06-10T14:26:05Z</time>
</trkpt>
<trkpt lat="62.701661" lon="23.875172">
<time>2021-06-10T14:26:06Z</time>
</trkpt>
<trkpt lat="62.701664" lon="23.875044">
<time>2021-06-10T14:26:07Z</time>
</trkpt>
<trkpt lat="62.701666" lon="23.874916">
<time>2021-06-10T14:26:08Z</time>
</trkpt>
<trkpt lat="62.701667" lon="23.874785">
<time>2021-06-10T14:26:09Z</time>
</trkpt>
<trkpt lat="62.701667" lon="23.874655">
<time>2021-06-10T14:26:10Z</time>
</trkpt>
<trkpt lat="62.701666" lon="23.874527">
<time>2021-06-10T14:26:11Z</time>
</trkpt>
<trkpt lat="62.701663" lon="23.8744">
<time>2021-06-10T14:26:12Z</time>
</trkpt>
<trkpt lat="62.701664" lon="23.874274">
<time>2021-06-10T14:26:13Z</time>
</trkpt>
<trkpt lat="62.701667" lon="23.874151">
<time>2021-06-10T14:26:14Z</time>
</trkpt>
<trkpt lat="62.701671" lon="23.874028">
<time>2021-06-10T14:26:15Z</time>
</trkpt>
<trkpt lat="62.701673" lon="23.873907">
<time>2021-06-10T14:26:16Z</time>
</trkpt>
<trkpt lat="62.701672" lon="23.873785">
<time>2021-06-10T14:26:17Z</time>
</trkpt>
<trkpt lat="62.701663" lon="23.873664">
<time>2021-06-10T14:26:18Z</time>
</trkpt>
<trkpt lat="62.701646" lon="23.873546">
<time>2021-06-10T14:26:19Z</time>
</trkpt>
<trkpt lat="62.701621" lon="23.873431">
<time>2021-06-10T14:26:20Z</time>
</trkpt>
<trkpt lat="62.701594" lon="23.873318">
<time>2021-06-10T14:26:21Z</time>
</trkpt>
<trkpt lat="62.70157" lon="23.873205">
<time>2021-06-10T14:26:22Z</time>
</trkpt>
<trkpt lat="62.701547" lon="23.873093">
<time>2021-06-10T14:26:23Z</time>
</trkpt>
<trkpt lat="62.70153" lon="23.872985">
<time>2021-06-10T14:26:24Z</time>
</trkpt>
<trkpt lat="62.701521" lon="23.872878">
<time>2021-06-10T14:26:25Z</time>
</trkpt>
<trkpt lat="62.701531" lon="23.872769">
<time>2021-06-10T14:26:26Z</time>
</trkpt>
<trkpt lat="62.701556" lon="23.872661">
<time>2021-06-10T14:26:27Z</time>
</trkpt>
<trkpt lat="62.701591" lon="23.87256">
<time>2021-06-10T14:26:28Z</time>
</trkpt>
<trkpt lat="62.701621" lon="23.872465">
<time>2021-06-10T14:26:29Z</time>
</trkpt>
<trkpt lat="62.70164" lon="23.872374">
<time>2021-06-10T14:26:30Z</time>
</trkpt>
<trkpt lat="62.701649" lon="23.872293">
<time>2021-06-10T14:26:31Z</time>
</trkpt>
<trkpt lat="62.701639" lon="23.872218">
<time>2021-06-10T14:26:32Z</time>
</trkpt>
<trkpt lat="62.701616" lon="23.872147">
<time>2021-06-10T14:26:33Z</time>
</trkpt>
<trkpt lat="62.701586" lon="23.872071">
<time>2021-06-10T14:26:34Z</time>
</trkpt>
<trkpt lat="62.701563" lon="23.872">
<time>2021-06-10T14:26:35Z</time>
</trkpt>
<trkpt lat="62.701545" lon="23.871945">
<time>2021-06-10T14:26:36Z</time>
</trkpt>
<trkpt lat="62.701525" lon="23.871911">
<time>2021-06-10T14:26:37Z</time>
</trkpt>
<trkpt lat="62.701505" lon="23.871892">
<time>2021-06-10T14:26:38Z</time>
</trkpt>
<trkpt lat="62.701486" lon="23.87188">
<time>2021-06-10T14:26:39Z</time>
</trkpt>
<trkpt lat="62.701469" lon="23.871868">
<time>2021-06-10T14:26:40Z</time>
</trkpt>
<trkpt lat="62.701448" lon="23.871852">
<time>2021-06-10T14:26:41Z</time>
</trkpt>
<trkpt lat="62.701424" lon="23.871828">
<time>2021-06-10T14:26:42Z</time>
</trkpt>
<trkpt lat="62.701397" lon="23.871795">
<time>2021-06-10T14:26:43Z</time>
</trkpt>
<trkpt lat="62.70137" lon="23.87176">
<time>2021-06-10T14:26:44Z</time>
</trkpt>
<trkpt lat="62.701342" lon="23.871727">
<time>2021-06-10T14:26:45Z</time>
</trkpt>
<trkpt lat="62.70131" lon="23.871713">
<time>2021-06-10T14:26:46Z</time>
</trkpt>
<trkpt lat="62.701276" lon="23.871704">
<time>2021-06-10T14:26:47Z</time>
</trkpt>
<trkpt lat="62.701238" lon="23.871695">
<time>2021-06-10T14:26:48Z</time>
</trkpt>
<trkpt lat="62.701201" lon="23.871674">
<time>2021-06-10T14:26:49Z</time>
</trkpt>
<trkpt lat="62.70116" lon="23.871663">
<time>2021-06-10T14:26:50Z</time>
</trkpt>
<trkpt lat="62.701116" lon="23.871664">
<time>2021-06-10T14:26:51Z</time>
</trkpt>
<trkpt lat="62.70107" lon="23.871677">
<time>2021-06-10T14:26:52Z</time>
</trkpt>
<trkpt lat="62.70103" lon="23.871701">
<time>2021-06-10T14:26:53Z</time>
</trkpt>
<trkpt lat="62.700995" lon="23.871747">
<time>2021-06-10T14:26:54Z</time>
</trkpt>
<trkpt lat="62.700964" lon="23.871815">
<time>2021-06-10T14:26:55Z</time>
</trkpt>
<trkpt lat="62.700932" lon="23.871895">
<time>2021-06-10T14:26:56Z</time>
</trkpt>
<trkpt lat="62.700894" lon="23.871991">
<time>2021-06-10T14:26:57Z</time>
</trkpt>
<trkpt lat="62.700855" lon="23.872099">
<time>2021-06-10T14:26:58Z</time>
</trkpt>
<trkpt lat="62.700814" lon="23.872218">
<time>2021-06-10T14:26:59Z</time>
</trkpt>
<trkpt lat="62.700773" lon="23.872334">
<time>2021-06-10T14:27:00Z</time>
</trkpt>
<trkpt lat="62.700732" lon="23.872454">
<time>2021-06-10T14:27:01Z</time>
</trkpt>
<trkpt lat="62.700691" lon="23.87258">
<time>2021-06-10T14:27:02Z</time>
</trkpt>
<trkpt lat="62.70065" lon="23.872715">
<time>2021-06-10T14:27:03Z</time>
</trkpt>
<trkpt lat="62.700609" lon="23.872849">
<time>2021-06-10T14:27:04Z</time>
</trkpt>
<trkpt lat="62.700562" lon="23.872987">
<time>2021-06-10T14:27:05Z</time>
</trkpt>
<trkpt lat="62.700514" lon="23.87312">
<time>2021-06-10T14:27:06Z</time>
</trkpt>
<trkpt lat="62.700466" lon="23.873259">
<time>2021-06-10T14:27:07Z</time>
</trkpt>
<trkpt lat="62.700422" lon="23.873399">
<time>2021-06-10T14:27:08Z</time>
</trkpt>
<trkpt lat="62.700376" lon="23.873539">
<time>2021-06-10T14:27:09Z</time>
</trkpt>
<trkpt lat="62.70033" lon="23.873672">
<time>2021-06-10T14:27:10Z</time>
</trkpt>
<trkpt lat="62.700282" lon="23.873798">
<time>2021-06-10T14:27:11Z</time>
</trkpt>
<trkpt lat="62.700233" lon="23.873922">
<time>2021-06-10T14:27:12Z</time>
</trkpt>
<trkpt lat="62.700184" lon="23.874045">
<time>2021-06-10T14:27:13Z</time>
</trkpt>
<trkpt lat="62.700137" lon="23.874168">
<time>2021-06-10T14:27:14Z</time>
</trkpt>
<trkpt lat="62.700088" lon="23.874296">
<time>2021-06-10T14:27:15Z</time>
</trkpt>
<trkpt lat="62.70004" lon="23.874429">
<time>2021-06-10T14:27:16Z</time>
</trkpt>
<trkpt lat="62.699992" lon="23.874568">
<time>2021-06-10T14:27:17Z</time>
</trkpt>
<trkpt lat="62.699951" lon="23.874712">
<time>2021-06-10T14:27:18Z</time>
</trkpt>
<trkpt lat="62.699912" lon="23.874862">
<time>2021-06-10T14:27:19Z</time>
</trkpt>
<trkpt lat="62.699876" lon="23.875012">
<time>2021-06-10T14:27:20Z</time>
</trkpt>
<trkpt lat="62.699839" lon="23.875162">
<time>2021-06-10T14:27:21Z</time>
</trkpt>
<trkpt lat="62.699803" lon="23.875312">
<time>2021-06-10T14:27:22Z</time>
</trkpt>
<trkpt lat="62.699768" lon="23.875472">
<time>2021-06-10T14:27:23Z</time>
</trkpt>
<trkpt lat="62.699732" lon="23.875635">
<time>2021-06-10T14:27:24Z</time>
</trkpt>
<trkpt lat="62.699696" lon="23.875801">
<time>2021-06-10T14:27:25Z</time>
</trkpt>
<trkpt lat="62.69966" lon="23.875961">
<time>2021-06-10T14:27:26Z</time>
</trkpt>
<trkpt lat="62.699623" lon="23.876119">
<time>2021-06-10T14:27:27Z</time>
</trkpt>
<trkpt lat="62.699585" lon="23.876273">
<time>2021-06-10T14:27:28Z</time>
</trkpt>
<trkpt lat="62.699547" lon="23.876428">
<time>2021-06-10T14:27:29Z</time>
</trkpt>
<trkpt lat="62.699508" lon="23.876582">
<time>2021-06-10T14:27:30Z</time>
</trkpt>
<trkpt lat="62.699472" lon="23.876731">
<time>2021-06-10T14:27:31Z</time>
</trkpt>
<trkpt lat="62.699446" lon="23.876873">
<time>2021-06-10T14:27:32Z</time>
</trkpt>
<trkpt lat="62.699425" lon="23.877014">
<time>2021-06-10T14:27:33Z</time>
</trkpt>
<trkpt lat="62.699406" lon="23.877147">
<time>2021-06-10T14:27:34Z</time>
</trkpt>
<trkpt lat="62.699381" lon="23.877274">
<time>2021-06-10T14:27:35Z</time>
</trkpt>
<trkpt lat="62.699359" lon="23.877396">
<time>2021-06-10T14:27:36Z</time>
</trkpt>
<trkpt lat="62.699342" lon="23.877521">
<time>2021-06-10T14:27:37Z</time>
</trkpt>
<trkpt lat="62.699331" lon="23.877651">
<time>2021-06-10T14:27:38Z</time>
</trkpt>
<trkpt lat="62.699319" lon="23.877786">
<time>2021-06-10T14:27:39Z</time>
</trkpt>
<trkpt lat="62.699306" lon="23.877928">
<time>2021-06-10T14:27:40Z</time>
</trkpt>
<trkpt lat="62.699297" lon="23.878082">
<time>2021-06-10T14:27:41Z</time>
</trkpt>
<trkpt lat="62.699293" lon="23.878234">
<time>2021-06-10T14:27:42Z</time>
</trkpt>
<trkpt lat="62.699296" lon="23.878374">
<time>2021-06-10T14:27:43Z</time>
</trkpt>
<trkpt lat="62.699305" lon="23.878494">
<time>2021-06-10T14:27:44Z</time>
</trkpt>
<trkpt lat="62.699319" lon="23.878606">
<time>2021-06-10T14:27:45Z</time>
</trkpt>
<trkpt lat="62.699334" lon="23.878715">
<time>2021-06-10T14:27:46Z</time>
</trkpt>
<trkpt lat="62.699348" lon="23.878821">
<time>2021-06-10T14:27:47Z</time>
</trkpt>
<trkpt lat="62.69936" lon="23.878924">
<time>2021-06-10T14:27:48Z</time>
</trkpt>
<trkpt lat="62.699377" lon="23.879019">
<time>2021-06-10T14:27:49Z</time>
</trkpt>
<trkpt lat="62.699398" lon="23.879106">
<time>2021-06-10T14:27:50Z</time>
</trkpt>
<trkpt lat="62.69943" lon="23.87918">
<time>2021-06-10T14:27:51Z</time>
</trkpt>
<trkpt lat="62.699465" lon="23.879244">
<time>2021-06-10T14:27:52Z</time>
</trkpt>
<trkpt lat="62.699497" lon="23.879301">
<time>2021-06-10T14:27:53Z</time>
</trkpt>
<trkpt lat="62.699521" lon="23.87936">
<time>2021-06-10T14:27:54Z</time>
</trkpt>
<trkpt lat="62.699543" lon="23.879415">
<time>2021-06-10T14:27:55Z</time>
</trkpt>
<trkpt lat="62.69957" lon="23.879462">
<time>2021-06-10T14:27:56Z</time>
</trkpt>
<trkpt lat="62.699597" lon="23.879497">
<time>2021-06-10T14:27:57Z</time>
</trkpt>
<trkpt lat="62.699617" lon="23.87953">
<time>2021-06-10T14:27:58Z</time>
</trkpt>
<trkpt lat="62.699623" lon="23.879565">
<time>2021-06-10T14:27:59Z</time>
</trkpt>
<trkpt lat="62.699621" lon="23.879605">
<time>2021-06-10T14:28:00Z</time>
</trkpt>
<trkpt lat="62.699619" lon="23.879648">
<time>2021-06-10T14:28:01Z</time>
</trkpt>
<trkpt lat="62.699615" lon="23.879688">
<time>2021-06-10T14:28:02Z</time>
</trkpt>
<trkpt lat="62.699609" lon="23.879714">
<time>2021-06-10T14:28:03Z</time>
</trkpt>
<trkpt lat="62.699606" lon="23.879716">
<time>2021-06-10T14:28:04Z</time>
</trkpt>
<trkpt lat="62.699609" lon="23.879704">
<time>2021-06-10T14:28:05Z</time>
</trkpt>
<trkpt lat="62.699625" lon="23.879682">
<time>2021-06-10T14:28:06Z</time>
</trkpt>
<trkpt lat="62.699644" lon="23.879663">
<time>2021-06-10T14:28:07Z</time>
</trkpt>
<trkpt lat="62.699668" lon="23.879644">
<time>2021-06-10T14:28:08Z</time>
</trkpt>
<trkpt lat="62.699693" lon="23.87964">
<time>2021-06-10T14:28:09Z</time>
</trkpt>
<trkpt lat="62.69972" lon="23.879642">
<time>2021-06-10T14:28:10Z</time>
</trkpt>
<trkpt lat="62.699754" lon="23.87965">
<time>2021-06-10T14:28:11Z</time>
</trkpt>
<trkpt lat="62.699797" lon="23.879648">
<time>2021-06-10T14:28:12Z</time>
</trkpt>
<trkpt lat="62.699851" lon="23.879641">
<time>2021-06-10T14:28:13Z</time>
</trkpt>
<trkpt lat="62.6999" lon="23.879618">
<time>2021-06-10T14:28:14Z</time>
</trkpt>
<trkpt lat="62.699948" lon="23.879584">
<time>2021-06-10T14:28:15Z</time>
</trkpt>
<trkpt lat="62.699994" lon="23.879538">
<time>2021-06-10T14:28:16Z</time>
</trkpt>
<trkpt lat="62.70005" lon="23.879491">
<time>2021-06-10T14:28:17Z</time>
</trkpt>
<trkpt lat="62.70011" lon="23.879444">
<time>2021-06-10T14:28:18Z</time>
</trkpt>
<trkpt lat="62.700172" lon="23.8794">
<time>2021-06-10T14:28:19Z</time>
</trkpt>
<trkpt lat="62.700235" lon="23.879357">
<time>2021-06-10T14:28:20Z</time>
</trkpt>
<trkpt lat="62.700298" lon="23.879319">
<time>2021-06-10T14:28:21Z</time>
</trkpt>
<trkpt lat="62.70036" lon="23.879284">
<time>2021-06-10T14:28:22Z</time>
</trkpt>
<trkpt lat="62.700421" lon="23.879259">
<time>2021-06-10T14:28:23Z</time>
</trkpt>
<trkpt lat="62.70048" lon="23.879235">
<time>2021-06-10T14:28:24Z</time>
</trkpt>
<trkpt lat="62.700533" lon="23.879203">
<time>2021-06-10T14:28:25Z</time>
</trkpt>
<trkpt lat="62.70058" lon="23.879155">
<time>2021-06-10T14:28:26Z</time>
</trkpt>
<trkpt lat="62.700627" lon="23.879085">
<time>2021-06-10T14:28:27Z</time>
</trkpt>
<trkpt lat="62.700671" lon="23.878987">
<time>2021-06-10T14:28:28Z</time>
</trkpt>
<trkpt lat="62.700707" lon="23.878865">
<time>2021-06-10T14:28:29Z</time>
</trkpt>
<trkpt lat="62.700727" lon="23.878729">
<time>2021-06-10T14:28:30Z</time>
</trkpt>
<trkpt lat="62.700736" lon="23.878604">
<time>2021-06-10T14:28:31Z</time>
</trkpt>
<trkpt lat="62.700743" lon="23.878493">
<time>2021-06-10T14:28:32Z</time>
</trkpt>
<trkpt lat="62.700749" lon="23.878396">
<time>2021-06-10T14:28:33Z</time>
</trkpt>
<trkpt lat="62.700754" lon="23.878304">
<time>2021-06-10T14:28:34Z</time>
</trkpt>
<trkpt lat="62.700759" lon="23.878222">
<time>2021-06-10T14:28:35Z</time>
</trkpt>
<trkpt lat="62.700763" lon="23.87815">
<time>2021-06-10T14:28:36Z</time>
</trkpt>
<trkpt lat="62.70077" lon="23.878086">
<time>2021-06-10T14:28:37Z</time>
</trkpt>
<trkpt lat="62.700776" lon="23.878015">
<time>2021-06-10T14:28:38Z</time>
</trkpt>
<trkpt lat="62.70079" lon="23.877936">
<time>2021-06-10T14:28:39Z</time>
</trkpt>
<trkpt lat="62.700807" lon="23.877854">
<time>2021-06-10T14:28:40Z</time>
</trkpt>
<trkpt lat="62.700834" lon="23.877779">
<time>2021-06-10T14:28:41Z</time>
</trkpt>
<trkpt lat="62.700866" lon="23.877713">
<time>2021-06-10T14:28:42Z</time>
</trkpt>
<trkpt lat="62.700901" lon="23.877648">
<time>2021-06-10T14:28:43Z</time>
</trkpt>
<trkpt lat="62.700935" lon="23.877584">
<time>2021-06-10T14:28:44Z</time>
</trkpt>
<trkpt lat="62.700969" lon="23.877514">
<time>2021-06-10T14:28:45Z</time>
</trkpt>
<trkpt lat="62.701004" lon="23.877438">
<time>2021-06-10T14:28:46Z</time>
</trkpt>
<trkpt lat="62.701038" lon="23.877361">
<time>2021-06-10T14:28:47Z</time>
</trkpt>
<trkpt lat="62.701073" lon="23.877285">
<time>2021-06-10T14:28:48Z</time>
</trkpt>
<trkpt lat="62.701108" lon="23.877205">
<time>2021-06-10T14:28:49Z</time>
</trkpt>
<trkpt lat="62.701146" lon="23.877123">
<time>2021-06-10T14:28:50Z</time>
</trkpt>
<trkpt lat="62.701188" lon="23.877046">
<time>2021-06-10T14:28:51Z</time>
</trkpt>
<trkpt lat="62.701233" lon="23.876982">
<time>2021-06-10T14:28:52Z</time>
</trkpt>
<trkpt lat="62.701275" lon="23.87694">
<time>2021-06-10T14:28:53Z</time>
</trkpt>
<trkpt lat="62.701309" lon="23.876942">
<time>2021-06-10T14:28:54Z</time>
</trkpt>
<trkpt lat="62.701336" lon="23.876981">
<time>2021-06-10T14:28:55Z</time>
</trkpt>
<trkpt lat="62.701359" lon="23.877047">
<time>2021-06-10T14:28:56Z</time>
</trkpt>
<trkpt lat="62.701376" lon="23.877114">
<time>2021-06-10T14:28:57Z</time>
</trkpt>
<trkpt lat="62.701384" lon="23.877188">
<time>2021-06-10T14:28:58Z</time>
</trkpt>
<trkpt lat="62.701385" lon="23.877264">
<time>2021-06-10T14:28:59Z</time>
</trkpt>
<trkpt lat="62.701379" lon="23.877349">
<time>2021-06-10T14:29:00Z</time>
</trkpt>
<trkpt lat="62.701373" lon="23.877444">
<time>2021-06-10T14:29:01Z</time>
</trkpt>
<trkpt lat="62.701367" lon="23.877547">
<time>2021-06-10T14:29:02Z</time>
</trkpt>
<trkpt lat="62.701364" lon="23.877651">
<time>2021-06-10T14:29:03Z</time>
</trkpt>
<trkpt lat="62.701363" lon="23.877757">
<time>2021-06-10T14:29:04Z</time>
</trkpt>
<trkpt lat="62.701362" lon="23.877867">
<time>2021-06-10T14:29:05Z</time>
</trkpt>
<trkpt lat="62.701357" lon="23.87798">
<time>2021-06-10T14:29:06Z</time>
</trkpt>
<trkpt lat="62.701351" lon="23.878097">
<time>2021-06-10T14:29:07Z</time>
</trkpt>
<trkpt lat="62.701344" lon="23.878218">
<time>2021-06-10T14:29:08Z</time>
</trkpt>
<trkpt lat="62.70134" lon="23.878344">
<time>2021-06-10T14:29:09Z</time>
</trkpt>
<trkpt lat="62.701341" lon="23.878469">
<time>2021-06-10T14:29:10Z</time>
</trkpt>
<trkpt lat="62.70135" lon="23.878586">
<time>2021-06-10T14:29:11Z</time>
</trkpt>
<trkpt lat="62.701367" lon="23.87869">
<time>2021-06-10T14:29:12Z</time>
</trkpt>
<trkpt lat="62.701407" lon="23.878775">
<time>2021-06-10T14:29:13Z</time>
</trkpt>
<trkpt lat="62.701457" lon="23.878844">
<time>2021-06-10T14:29:14Z</time>
</trkpt>
<trkpt lat="62.701515" lon="23.878909">
<time>2021-06-10T14:29:15Z</time>
</trkpt>
<trkpt lat="62.701563" lon="23.878997">
<time>2021-06-10T14:29:16Z</time>
</trkpt>
<trkpt lat="62.701604" lon="23.879107">
<time>2021-06-10T14:29:17Z</time>
</trkpt>
<trkpt lat="62.701641" lon="23.87922">
<time>2021-06-10T14:29:18Z</time>
</trkpt>
<trkpt lat="62.701678" lon="23.879309">
<time>2021-06-10T14:29:19Z</time>
</trkpt>
<trkpt lat="62.70172" lon="23.879374">
<time>2021-06-10T14:29:20Z</time>
</trkpt>
<trkpt lat="62.701765" lon="23.879421">
<time>2021-06-10T14:29:21Z</time>
</trkpt>
<trkpt lat="62.701807" lon="23.879468">
<time>2021-06-10T14:29:22Z</time>
</trkpt>
<trkpt lat="62.701842" lon="23.879524">
<time>2021-06-10T14:29:23Z</time>
</trkpt>
<trkpt lat="62.701854" lon="23.879593">
<time>2021-06-10T14:29:24Z</time>
</trkpt>
</trkseg>
<name>Luca Dallavalle </name>
</trk>
</gpx>